DLH98F VOHS-EDDF
Flight info
| Callsign | DLH98F |
|---|---|
| Flight time | 8h 34m |
| Altitude | 330000 |
| Route | NADEL5 BUSBO Q28 SUDEL/N0520F300 Q24 BAVOX L333 KABEL/N0510F320 L333 MERUN L750 RANAH B449 DOLOS/N0494F340 B449 MAMED P130 REBLO UM11 TBN/N0496F360 UM11 CRM UL746 ODERO DCT LUGEB DCT TEGRI DCT ARSIN DCT SUBEN DCT AKINI T161 DEBHI DEBHI1B |
| Aircraft | B742/H-SDFHIRWXY/L |
Departure
| Time | 2026-05-05 11:53 |
|---|---|
| Airport | Rajiv Gandhi International Airport (VOHS) |
Arrival
| Time | 2026-05-05 20:28 |
|---|---|
| Airport | Frankfurt Main Airport (EDDF) |
| Time | Latitude | Longitude | Altitude | Speed | Heading |
|---|---|---|---|---|---|
| 2026-05-05 11:27 | 17.23426 | 78.42895 | 1998 ft | 0 kts | 360° |
| 2026-05-05 11:35 | 17.23416 | 78.42895 | 1998 ft | 2 kts | 360° |
| 2026-05-05 11:36 | 17.23401 | 78.42895 | 1998 ft | 2 kts | 359° |
| 2026-05-05 11:36 | 17.23386 | 78.42895 | 1998 ft | 2 kts | 360° |
| 2026-05-05 11:36 | 17.23371 | 78.42895 | 1998 ft | 2 kts | 2° |
| 2026-05-05 11:36 | 17.23356 | 78.42891 | 1998 ft | 2 kts | 25° |
| 2026-05-05 11:37 | 17.23344 | 78.42882 | 1999 ft | 2 kts | 44° |
| 2026-05-05 11:37 | 17.23334 | 78.42870 | 1999 ft | 2 kts | 63° |
| 2026-05-05 11:37 | 17.23329 | 78.42855 | 1998 ft | 2 kts | 82° |
| 2026-05-05 11:37 | 17.23329 | 78.42847 | 1998 ft | 0 kts | 89° |
| 2026-05-05 11:41 | 17.23329 | 78.42857 | 1998 ft | 3 kts | 88° |
| 2026-05-05 11:41 | 17.23330 | 78.42895 | 2000 ft | 6 kts | 88° |
| 2026-05-05 11:41 | 17.23331 | 78.42941 | 2002 ft | 6 kts | 88° |
| 2026-05-05 11:42 | 17.23332 | 78.42985 | 2003 ft | 5 kts | 89° |
| 2026-05-05 11:42 | 17.23333 | 78.43026 | 2005 ft | 5 kts | 89° |
| 2026-05-05 11:42 | 17.23334 | 78.43072 | 2006 ft | 6 kts | 89° |
| 2026-05-05 11:42 | 17.23334 | 78.43100 | 2007 ft | 1 kts | 93° |
| 2026-05-05 11:43 | 17.23333 | 78.43111 | 2008 ft | 1 kts | 98° |
| 2026-05-05 11:43 | 17.23329 | 78.43129 | 2008 ft | 3 kts | 108° |
| 2026-05-05 11:43 | 17.23305 | 78.43157 | 2009 ft | 7 kts | 152° |
| 2026-05-05 11:43 | 17.23257 | 78.43165 | 2010 ft | 5 kts | 178° |
| 2026-05-05 11:44 | 17.23224 | 78.43166 | 2010 ft | 3 kts | 178° |
| 2026-05-05 11:44 | 17.23203 | 78.43166 | 2010 ft | 3 kts | 178° |
| 2026-05-05 11:44 | 17.23165 | 78.43168 | 2010 ft | 7 kts | 178° |
| 2026-05-05 11:44 | 17.23107 | 78.43187 | 2010 ft | 10 kts | 135° |
| 2026-05-05 11:45 | 17.23092 | 78.43258 | 2012 ft | 10 kts | 89° |
| 2026-05-05 11:45 | 17.23092 | 78.43342 | 2013 ft | 12 kts | 90° |
| 2026-05-05 11:45 | 17.23091 | 78.43430 | 2016 ft | 12 kts | 91° |
| 2026-05-05 11:45 | 17.23091 | 78.43527 | 2018 ft | 13 kts | 88° |
| 2026-05-05 11:46 | 17.23097 | 78.43631 | 2022 ft | 15 kts | 86° |
| 2026-05-05 11:46 | 17.23100 | 78.43754 | 2026 ft | 16 kts | 89° |
| 2026-05-05 11:46 | 17.23101 | 78.43865 | 2030 ft | 13 kts | 89° |
| 2026-05-05 11:46 | 17.23102 | 78.43949 | 2033 ft | 10 kts | 89° |
| 2026-05-05 11:47 | 17.23103 | 78.44029 | 2035 ft | 12 kts | 89° |
| 2026-05-05 11:47 | 17.23104 | 78.44136 | 2038 ft | 16 kts | 89° |
| 2026-05-05 11:47 | 17.23106 | 78.44273 | 2040 ft | 20 kts | 89° |
| 2026-05-05 11:47 | 17.23108 | 78.44429 | 2041 ft | 22 kts | 89° |
| 2026-05-05 11:48 | 17.23113 | 78.44804 | 2032 ft | 28 kts | 89° |
| 2026-05-05 11:48 | 17.23116 | 78.45013 | 2024 ft | 28 kts | 89° |
| 2026-05-05 11:48 | 17.23118 | 78.45202 | 2021 ft | 17 kts | 89° |
| 2026-05-05 11:49 | 17.23093 | 78.45302 | 2019 ft | 13 kts | 140° |
| 2026-05-05 11:49 | 17.23045 | 78.45319 | 2021 ft | 0 kts | 176° |
| 2026-05-05 11:51 | 17.23026 | 78.45319 | 2022 ft | 5 kts | 181° |
| 2026-05-05 11:51 | 17.22971 | 78.45298 | 2024 ft | 12 kts | 216° |
| 2026-05-05 11:51 | 17.22920 | 78.45239 | 2026 ft | 8 kts | 245° |
| 2026-05-05 11:51 | 17.22912 | 78.45187 | 2027 ft | 7 kts | 269° |
| 2026-05-05 11:52 | 17.22911 | 78.45091 | 2028 ft | 27 kts | 269° |
| 2026-05-05 11:52 | 17.22906 | 78.44717 | 2036 ft | 74 kts | 269° |
| 2026-05-05 11:52 | 17.22897 | 78.44022 | 2033 ft | 116 kts | 269° |
| 2026-05-05 11:52 | 17.22882 | 78.43031 | 2003 ft | 156 kts | 269° |
| 2026-05-05 11:53 | 17.22863 | 78.41753 | 1979 ft | 189 kts | 269° |
| 2026-05-05 11:53 | 17.22825 | 78.40362 | 2162 ft | 195 kts | 269° |
| 2026-05-05 11:53 | 17.22788 | 78.38927 | 2392 ft | 201 kts | 269° |
| 2026-05-05 11:53 | 17.22769 | 78.37432 | 2659 ft | 206 kts | 270° |
| 2026-05-05 11:54 | 17.22755 | 78.35908 | 2895 ft | 215 kts | 270° |
| 2026-05-05 11:54 | 17.22742 | 78.34302 | 3135 ft | 224 kts | 270° |
| 2026-05-05 11:54 | 17.22757 | 78.32629 | 3367 ft | 234 kts | 278° |
| 2026-05-05 11:54 | 17.23177 | 78.30939 | 3599 ft | 243 kts | 288° |
| 2026-05-05 11:55 | 17.23698 | 78.29216 | 3827 ft | 256 kts | 288° |
| 2026-05-05 11:55 | 17.24251 | 78.27360 | 4066 ft | 271 kts | 287° |
| 2026-05-05 11:55 | 17.24806 | 78.25469 | 4294 ft | 277 kts | 287° |
| 2026-05-05 11:55 | 17.25378 | 78.23508 | 4528 ft | 283 kts | 287° |
| 2026-05-05 11:56 | 17.25953 | 78.21536 | 4761 ft | 279 kts | 287° |
| 2026-05-05 11:56 | 17.26523 | 78.19578 | 4996 ft | 284 kts | 287° |
| 2026-05-05 11:56 | 17.27107 | 78.17573 | 5229 ft | 285 kts | 287° |
| 2026-05-05 11:56 | 17.27569 | 78.15987 | 5414 ft | 285 kts | 287° |
| 2026-05-05 11:57 | 17.28154 | 78.13975 | 5649 ft | 286 kts | 288° |
| 2026-05-05 11:57 | 17.28734 | 78.11984 | 5999 ft | 283 kts | 288° |
| 2026-05-05 11:57 | 17.29309 | 78.10007 | 6446 ft | 285 kts | 288° |
| 2026-05-05 11:57 | 17.29885 | 78.08021 | 6897 ft | 288 kts | 288° |
| 2026-05-05 11:58 | 17.30479 | 78.05979 | 7368 ft | 289 kts | 288° |
| 2026-05-05 11:58 | 17.31062 | 78.03976 | 7907 ft | 287 kts | 287° |
| 2026-05-05 11:58 | 17.31639 | 78.01986 | 8463 ft | 288 kts | 287° |
| 2026-05-05 11:58 | 17.32079 | 78.00468 | 8886 ft | 288 kts | 288° |
| 2026-05-05 11:59 | 17.32658 | 77.98473 | 9442 ft | 289 kts | 288° |
| 2026-05-05 11:59 | 17.33241 | 77.96462 | 9971 ft | 290 kts | 288° |
| 2026-05-05 11:59 | 17.33833 | 77.94421 | 10488 ft | 292 kts | 288° |
| 2026-05-05 11:59 | 17.34432 | 77.92355 | 10963 ft | 295 kts | 288° |
| 2026-05-05 12:00 | 17.35034 | 77.90279 | 11307 ft | 304 kts | 288° |
| 2026-05-05 12:00 | 17.35661 | 77.88116 | 11660 ft | 314 kts | 288° |
| 2026-05-05 12:00 | 17.36306 | 77.85886 | 12011 ft | 323 kts | 288° |
| 2026-05-05 12:00 | 17.36956 | 77.83639 | 12359 ft | 325 kts | 288° |
| 2026-05-05 12:01 | 17.37629 | 77.81316 | 12720 ft | 334 kts | 288° |
| 2026-05-05 12:01 | 17.38312 | 77.78953 | 13076 ft | 343 kts | 288° |
| 2026-05-05 12:01 | 17.39011 | 77.76536 | 13425 ft | 352 kts | 288° |
| 2026-05-05 12:01 | 17.39739 | 77.74019 | 13779 ft | 362 kts | 288° |
| 2026-05-05 12:02 | 17.40474 | 77.71478 | 14126 ft | 371 kts | 287° |
| 2026-05-05 12:02 | 17.41234 | 77.68843 | 14480 ft | 375 kts | 287° |
| 2026-05-05 12:02 | 17.41983 | 77.66247 | 14888 ft | 373 kts | 287° |
| 2026-05-05 12:02 | 17.42738 | 77.63627 | 15372 ft | 373 kts | 287° |
| 2026-05-05 12:03 | 17.43740 | 77.61112 | 15851 ft | 376 kts | 301° |
| 2026-05-05 12:03 | 17.45368 | 77.58939 | 16336 ft | 379 kts | 316° |
| 2026-05-05 12:03 | 17.47472 | 77.57251 | 16793 ft | 383 kts | 326° |
| 2026-05-05 12:03 | 17.49784 | 77.55790 | 17245 ft | 387 kts | 328° |
| 2026-05-05 12:04 | 17.52142 | 77.54348 | 17686 ft | 390 kts | 328° |
| 2026-05-05 12:04 | 17.54499 | 77.52880 | 18126 ft | 393 kts | 327° |
| 2026-05-05 12:04 | 17.56830 | 77.51399 | 18557 ft | 396 kts | 327° |
| 2026-05-05 12:04 | 17.59203 | 77.49873 | 18994 ft | 398 kts | 326° |
| 2026-05-05 12:05 | 17.61587 | 77.48333 | 19406 ft | 400 kts | 326° |
| 2026-05-05 12:05 | 17.63986 | 77.46779 | 19805 ft | 402 kts | 326° |
| 2026-05-05 12:05 | 17.66366 | 77.45236 | 20196 ft | 404 kts | 326° |
| 2026-05-05 12:05 | 17.68792 | 77.43663 | 20592 ft | 406 kts | 326° |
| 2026-05-05 12:06 | 17.71220 | 77.42089 | 20984 ft | 407 kts | 326° |
| 2026-05-05 12:06 | 17.73619 | 77.40533 | 21369 ft | 407 kts | 325° |
| 2026-05-05 12:06 | 17.76063 | 77.38947 | 21759 ft | 407 kts | 325° |
| 2026-05-05 12:06 | 17.78475 | 77.37382 | 22112 ft | 408 kts | 325° |
| 2026-05-05 12:07 | 17.80917 | 77.35795 | 22498 ft | 408 kts | 325° |
| 2026-05-05 12:07 | 17.83314 | 77.34236 | 22881 ft | 407 kts | 325° |
| 2026-05-05 12:07 | 17.85788 | 77.32739 | 23261 ft | 408 kts | 334° |
| 2026-05-05 12:07 | 17.88524 | 77.31831 | 23603 ft | 412 kts | 348° |
| 2026-05-05 12:08 | 17.91385 | 77.31542 | 23908 ft | 414 kts | 355° |
| 2026-05-05 12:08 | 17.94303 | 77.31496 | 24211 ft | 415 kts | 357° |
| 2026-05-05 12:08 | 17.97201 | 77.31493 | 24476 ft | 415 kts | 357° |
| 2026-05-05 12:08 | 18.00127 | 77.31478 | 24741 ft | 416 kts | 356° |
| 2026-05-05 12:09 | 18.03013 | 77.31442 | 24957 ft | 417 kts | 356° |
| 2026-05-05 12:09 | 18.05942 | 77.31391 | 25180 ft | 418 kts | 356° |
| 2026-05-05 12:09 | 18.08892 | 77.31333 | 25395 ft | 419 kts | 356° |
| 2026-05-05 12:09 | 18.11831 | 77.31271 | 25580 ft | 420 kts | 355° |
| 2026-05-05 12:10 | 18.14760 | 77.31208 | 25762 ft | 422 kts | 356° |
| 2026-05-05 12:10 | 18.17737 | 77.31144 | 25935 ft | 424 kts | 356° |
| 2026-05-05 12:10 | 18.20696 | 77.31080 | 26096 ft | 426 kts | 356° |
| 2026-05-05 12:10 | 18.23701 | 77.31130 | 26251 ft | 429 kts | 5° |
| 2026-05-05 12:11 | 18.26617 | 77.31834 | 26412 ft | 434 kts | 18° |
| 2026-05-05 12:11 | 18.29379 | 77.33277 | 26578 ft | 439 kts | 31° |
| 2026-05-05 12:11 | 18.31871 | 77.35188 | 26743 ft | 442 kts | 36° |
| 2026-05-05 12:11 | 18.34246 | 77.37219 | 26902 ft | 443 kts | 37° |
| 2026-05-05 12:12 | 18.36651 | 77.39295 | 27062 ft | 444 kts | 37° |
| 2026-05-05 12:12 | 18.39073 | 77.41354 | 27221 ft | 445 kts | 36° |
| 2026-05-05 12:12 | 18.41514 | 77.43398 | 27384 ft | 445 kts | 36° |
| 2026-05-05 12:12 | 18.43956 | 77.45422 | 27544 ft | 446 kts | 35° |
| 2026-05-05 12:13 | 18.46420 | 77.47454 | 27658 ft | 448 kts | 35° |
| 2026-05-05 12:13 | 18.48905 | 77.49499 | 27771 ft | 449 kts | 35° |
| 2026-05-05 12:13 | 18.51366 | 77.51522 | 27882 ft | 451 kts | 35° |
| 2026-05-05 12:13 | 18.53856 | 77.53570 | 27994 ft | 452 kts | 35° |
| 2026-05-05 12:14 | 18.56364 | 77.55634 | 28106 ft | 454 kts | 35° |
| 2026-05-05 12:14 | 18.58858 | 77.57687 | 28217 ft | 455 kts | 35° |
| 2026-05-05 12:14 | 18.61380 | 77.59765 | 28329 ft | 456 kts | 35° |
| 2026-05-05 12:14 | 18.63916 | 77.61855 | 28444 ft | 457 kts | 35° |
| 2026-05-05 12:15 | 18.66419 | 77.63918 | 28561 ft | 458 kts | 35° |
| 2026-05-05 12:15 | 18.68935 | 77.65994 | 28676 ft | 459 kts | 36° |
| 2026-05-05 12:15 | 18.71467 | 77.68095 | 28793 ft | 460 kts | 36° |
| 2026-05-05 12:15 | 18.74000 | 77.70200 | 28910 ft | 460 kts | 36° |
| 2026-05-05 12:16 | 18.76533 | 77.72302 | 29028 ft | 460 kts | 36° |
| 2026-05-05 12:16 | 18.79079 | 77.74410 | 29145 ft | 460 kts | 35° |
| 2026-05-05 12:16 | 18.81588 | 77.76487 | 29260 ft | 461 kts | 35° |
| 2026-05-05 12:16 | 18.84133 | 77.78593 | 29377 ft | 460 kts | 35° |
| 2026-05-05 12:17 | 18.86653 | 77.80678 | 29493 ft | 460 kts | 35° |
| 2026-05-05 12:17 | 18.89197 | 77.82783 | 29609 ft | 460 kts | 35° |
| 2026-05-05 12:17 | 18.91732 | 77.84882 | 29727 ft | 459 kts | 35° |
| 2026-05-05 12:17 | 18.94266 | 77.86980 | 29843 ft | 459 kts | 35° |
| 2026-05-05 12:18 | 18.96786 | 77.89069 | 29959 ft | 458 kts | 35° |
| 2026-05-05 12:18 | 18.99315 | 77.91164 | 30075 ft | 457 kts | 35° |
| 2026-05-05 12:18 | 19.01809 | 77.93232 | 30191 ft | 456 kts | 35° |
| 2026-05-05 12:18 | 19.04330 | 77.95324 | 30307 ft | 455 kts | 35° |
| 2026-05-05 12:19 | 19.06826 | 77.97395 | 30424 ft | 454 kts | 35° |
| 2026-05-05 12:19 | 19.09318 | 77.99464 | 30540 ft | 453 kts | 35° |
| 2026-05-05 12:19 | 19.11814 | 78.01538 | 30649 ft | 452 kts | 35° |
| 2026-05-05 12:19 | 19.14278 | 78.03587 | 30728 ft | 451 kts | 35° |
| 2026-05-05 12:20 | 19.19223 | 78.07703 | 30884 ft | 450 kts | 35° |
| 2026-05-05 12:20 | 19.24191 | 78.11824 | 31017 ft | 448 kts | 32° |
| 2026-05-05 12:21 | 19.29617 | 78.14988 | 31128 ft | 440 kts | 21° |
| 2026-05-05 12:21 | 19.35181 | 78.17722 | 31233 ft | 439 kts | 21° |
| 2026-05-05 12:22 | 19.40751 | 78.20497 | 31265 ft | 440 kts | 21° |
| 2026-05-05 12:22 | 19.46331 | 78.23319 | 31263 ft | 442 kts | 22° |
| 2026-05-05 12:23 | 19.51920 | 78.26157 | 31260 ft | 444 kts | 21° |
| 2026-05-05 12:23 | 19.57751 | 78.28047 | 31263 ft | 431 kts | 358° |
| 2026-05-05 12:24 | 19.60772 | 78.27895 | 31267 ft | 426 kts | 346° |
| 2026-05-05 12:24 | 19.63680 | 78.27279 | 31268 ft | 426 kts | 342° |
| 2026-05-05 12:24 | 19.69487 | 78.25707 | 31268 ft | 431 kts | 341° |
| 2026-05-05 12:25 | 19.75394 | 78.24102 | 31373 ft | 435 kts | 342° |
| 2026-05-05 12:25 | 19.78350 | 78.23315 | 31503 ft | 436 kts | 342° |
| 2026-05-05 12:25 | 19.81323 | 78.22530 | 31632 ft | 436 kts | 342° |
| 2026-05-05 12:26 | 19.87267 | 78.20964 | 31752 ft | 441 kts | 342° |
| 2026-05-05 12:26 | 19.93343 | 78.19366 | 31755 ft | 448 kts | 342° |
| 2026-05-05 12:27 | 19.99491 | 78.17748 | 31755 ft | 456 kts | 342° |
| 2026-05-05 12:27 | 20.05720 | 78.16110 | 31758 ft | 463 kts | 342° |
| 2026-05-05 12:28 | 20.12074 | 78.14436 | 31761 ft | 471 kts | 342° |
| 2026-05-05 12:28 | 20.18554 | 78.12727 | 31762 ft | 479 kts | 342° |
| 2026-05-05 12:29 | 20.25080 | 78.11006 | 31766 ft | 482 kts | 342° |
| 2026-05-05 12:29 | 20.31671 | 78.09267 | 31767 ft | 484 kts | 342° |
| 2026-05-05 12:30 | 20.38282 | 78.07519 | 31767 ft | 487 kts | 342° |
| 2026-05-05 12:30 | 20.44899 | 78.05750 | 31760 ft | 488 kts | 339° |
| 2026-05-05 12:31 | 20.51087 | 78.02769 | 31763 ft | 483 kts | 327° |
| 2026-05-05 12:31 | 20.56848 | 77.99007 | 31760 ft | 485 kts | 324° |
| 2026-05-05 12:32 | 20.62587 | 77.95095 | 31758 ft | 487 kts | 324° |
| 2026-05-05 12:32 | 20.68340 | 77.91187 | 31754 ft | 487 kts | 324° |
| 2026-05-05 12:33 | 20.74082 | 77.87300 | 31762 ft | 486 kts | 324° |
| 2026-05-05 12:33 | 20.79835 | 77.83409 | 31767 ft | 484 kts | 324° |
| 2026-05-05 12:34 | 20.85560 | 77.79533 | 31770 ft | 484 kts | 324° |
| 2026-05-05 12:34 | 20.91294 | 77.75648 | 31772 ft | 485 kts | 324° |
| 2026-05-05 12:35 | 20.97006 | 77.71774 | 31773 ft | 485 kts | 324° |
| 2026-05-05 12:35 | 21.02725 | 77.67893 | 31774 ft | 484 kts | 324° |
| 2026-05-05 12:36 | 21.08470 | 77.63989 | 31778 ft | 483 kts | 324° |
| 2026-05-05 12:36 | 21.14172 | 77.60109 | 31786 ft | 484 kts | 324° |
| 2026-05-05 12:37 | 21.19878 | 77.56223 | 31790 ft | 484 kts | 324° |
| 2026-05-05 12:37 | 21.25598 | 77.52325 | 31795 ft | 483 kts | 324° |
| 2026-05-05 12:38 | 21.31310 | 77.48430 | 31821 ft | 483 kts | 324° |
| 2026-05-05 12:38 | 21.37020 | 77.44531 | 31851 ft | 484 kts | 324° |
| 2026-05-05 12:39 | 21.42721 | 77.40636 | 31873 ft | 484 kts | 324° |
| 2026-05-05 12:39 | 21.48449 | 77.36720 | 31881 ft | 483 kts | 324° |
| 2026-05-05 12:40 | 21.54141 | 77.32812 | 31865 ft | 484 kts | 323° |
| 2026-05-05 12:40 | 21.59828 | 77.28884 | 31832 ft | 483 kts | 323° |
| 2026-05-05 12:41 | 21.65509 | 77.24975 | 31811 ft | 482 kts | 323° |
| 2026-05-05 12:41 | 21.71203 | 77.21062 | 31803 ft | 484 kts | 323° |
| 2026-05-05 12:42 | 21.76918 | 77.17136 | 31806 ft | 483 kts | 324° |
| 2026-05-05 12:42 | 21.82617 | 77.13216 | 31813 ft | 482 kts | 323° |
| 2026-05-05 12:43 | 21.88302 | 77.09302 | 31820 ft | 483 kts | 323° |
| 2026-05-05 12:43 | 21.93992 | 77.05381 | 31818 ft | 483 kts | 323° |
| 2026-05-05 12:44 | 21.99690 | 77.01451 | 31815 ft | 483 kts | 323° |
| 2026-05-05 12:44 | 22.05350 | 76.97544 | 31813 ft | 481 kts | 323° |
| 2026-05-05 12:45 | 22.11017 | 76.93627 | 31809 ft | 480 kts | 323° |
| 2026-05-05 12:45 | 22.16685 | 76.89703 | 31806 ft | 480 kts | 323° |
| 2026-05-05 12:46 | 22.22366 | 76.85767 | 31802 ft | 482 kts | 323° |
| 2026-05-05 12:46 | 22.28000 | 76.81862 | 31800 ft | 480 kts | 323° |
| 2026-05-05 12:47 | 22.33675 | 76.77926 | 31797 ft | 478 kts | 323° |
| 2026-05-05 12:47 | 22.39287 | 76.74028 | 31798 ft | 479 kts | 323° |
| 2026-05-05 12:48 | 22.44915 | 76.70116 | 31803 ft | 479 kts | 323° |
| 2026-05-05 12:48 | 22.50588 | 76.66167 | 31809 ft | 480 kts | 323° |
| 2026-05-05 12:49 | 22.56227 | 76.62241 | 31819 ft | 478 kts | 323° |
| 2026-05-05 12:49 | 22.61817 | 76.58344 | 31838 ft | 477 kts | 323° |
| 2026-05-05 12:50 | 22.67436 | 76.54423 | 31857 ft | 477 kts | 323° |
| 2026-05-05 12:50 | 22.73080 | 76.50479 | 31878 ft | 478 kts | 323° |
| 2026-05-05 12:51 | 22.78665 | 76.46574 | 31895 ft | 478 kts | 323° |
| 2026-05-05 12:51 | 22.84306 | 76.42625 | 31891 ft | 477 kts | 323° |
| 2026-05-05 12:52 | 22.89893 | 76.38711 | 31888 ft | 476 kts | 323° |
| 2026-05-05 12:52 | 22.95515 | 76.34769 | 31879 ft | 476 kts | 323° |
| 2026-05-05 12:53 | 23.01102 | 76.30815 | 31874 ft | 477 kts | 323° |
| 2026-05-05 12:53 | 23.06689 | 76.26865 | 31862 ft | 475 kts | 323° |
| 2026-05-05 12:54 | 23.15039 | 76.20978 | 31867 ft | 476 kts | 323° |
| 2026-05-05 12:55 | 23.20663 | 76.17014 | 31868 ft | 477 kts | 323° |
| 2026-05-05 12:55 | 23.26251 | 76.13073 | 31862 ft | 476 kts | 323° |
| 2026-05-05 12:56 | 23.31848 | 76.09122 | 31866 ft | 475 kts | 323° |
| 2026-05-05 12:56 | 23.37431 | 76.05177 | 31865 ft | 475 kts | 323° |
| 2026-05-05 12:57 | 23.42981 | 76.01250 | 31868 ft | 475 kts | 323° |
| 2026-05-05 12:57 | 23.48587 | 75.97280 | 31873 ft | 475 kts | 323° |
| 2026-05-05 12:58 | 23.54155 | 75.93334 | 31878 ft | 474 kts | 323° |
| 2026-05-05 12:58 | 23.59680 | 75.89414 | 31881 ft | 474 kts | 323° |
| 2026-05-05 12:59 | 23.65249 | 75.85457 | 31877 ft | 475 kts | 323° |
| 2026-05-05 12:59 | 23.70828 | 75.81490 | 31871 ft | 475 kts | 323° |
| 2026-05-05 13:00 | 23.79153 | 75.75565 | 31860 ft | 473 kts | 323° |
| 2026-05-05 13:01 | 23.90224 | 75.67668 | 31860 ft | 472 kts | 323° |
| 2026-05-05 13:01 | 23.95773 | 75.63704 | 31860 ft | 473 kts | 323° |
| 2026-05-05 13:02 | 24.01318 | 75.59739 | 31854 ft | 472 kts | 323° |
| 2026-05-05 13:02 | 24.06836 | 75.55789 | 31856 ft | 471 kts | 323° |
| 2026-05-05 13:03 | 24.12354 | 75.51835 | 31852 ft | 472 kts | 323° |
| 2026-05-05 13:03 | 24.17924 | 75.47836 | 31853 ft | 472 kts | 323° |
| 2026-05-05 13:04 | 24.23442 | 75.43874 | 31852 ft | 472 kts | 323° |
| 2026-05-05 13:04 | 24.28971 | 75.39899 | 31853 ft | 471 kts | 323° |
| 2026-05-05 13:05 | 24.34457 | 75.35951 | 31855 ft | 470 kts | 323° |
| 2026-05-05 13:05 | 24.39943 | 75.31979 | 31861 ft | 470 kts | 322° |
| 2026-05-05 13:06 | 24.45447 | 75.27976 | 31861 ft | 469 kts | 323° |
| 2026-05-05 13:06 | 24.50890 | 75.24036 | 31864 ft | 467 kts | 323° |
| 2026-05-05 13:07 | 24.56380 | 75.20064 | 31865 ft | 468 kts | 323° |
| 2026-05-05 13:07 | 24.61867 | 75.16095 | 31867 ft | 469 kts | 323° |
| 2026-05-05 13:08 | 24.67330 | 75.12139 | 31875 ft | 469 kts | 323° |
| 2026-05-05 13:08 | 24.72818 | 75.08161 | 31881 ft | 467 kts | 323° |
| 2026-05-05 13:09 | 24.78261 | 75.04211 | 31889 ft | 465 kts | 323° |
| 2026-05-05 13:09 | 24.83691 | 75.00266 | 31889 ft | 465 kts | 323° |
| 2026-05-05 13:10 | 24.89145 | 74.96298 | 31891 ft | 467 kts | 323° |
| 2026-05-05 13:10 | 24.94591 | 74.92334 | 31889 ft | 467 kts | 323° |
| 2026-05-05 13:11 | 25.00032 | 74.88369 | 31888 ft | 465 kts | 323° |
| 2026-05-05 13:11 | 25.05438 | 74.84425 | 31883 ft | 464 kts | 323° |
| 2026-05-05 13:12 | 25.10857 | 74.80466 | 31879 ft | 464 kts | 323° |
| 2026-05-05 13:12 | 25.16278 | 74.76499 | 31884 ft | 465 kts | 323° |
| 2026-05-05 13:13 | 25.21701 | 74.72529 | 31875 ft | 464 kts | 323° |
| 2026-05-05 13:13 | 25.27122 | 74.68556 | 31870 ft | 463 kts | 323° |
| 2026-05-05 13:14 | 25.32524 | 74.64593 | 31880 ft | 463 kts | 323° |
| 2026-05-05 13:14 | 25.37935 | 74.60620 | 31867 ft | 462 kts | 323° |
| 2026-05-05 13:15 | 25.43324 | 74.56657 | 31868 ft | 462 kts | 323° |
| 2026-05-05 13:15 | 25.48702 | 74.52700 | 31864 ft | 461 kts | 323° |
| 2026-05-05 13:16 | 25.54081 | 74.48737 | 31864 ft | 461 kts | 323° |
| 2026-05-05 13:16 | 25.59458 | 74.44771 | 31869 ft | 462 kts | 323° |
| 2026-05-05 13:17 | 25.64842 | 74.40796 | 31869 ft | 462 kts | 323° |
| 2026-05-05 13:17 | 25.70195 | 74.36839 | 31870 ft | 461 kts | 323° |
| 2026-05-05 13:18 | 25.75572 | 74.32847 | 31872 ft | 459 kts | 323° |
| 2026-05-05 13:18 | 25.80881 | 74.28874 | 31869 ft | 459 kts | 323° |
| 2026-05-05 13:19 | 25.86259 | 74.24868 | 31876 ft | 460 kts | 323° |
| 2026-05-05 13:19 | 25.91622 | 74.20882 | 31864 ft | 460 kts | 323° |
| 2026-05-05 13:20 | 25.96948 | 74.16923 | 31865 ft | 459 kts | 323° |
| 2026-05-05 13:20 | 26.02331 | 74.12917 | 31861 ft | 459 kts | 323° |
| 2026-05-05 13:21 | 26.07675 | 74.08937 | 31846 ft | 459 kts | 323° |
| 2026-05-05 13:21 | 26.12987 | 74.04974 | 31833 ft | 458 kts | 323° |
| 2026-05-05 13:22 | 26.18331 | 74.00981 | 31836 ft | 459 kts | 323° |
| 2026-05-05 13:22 | 26.23673 | 73.96987 | 31831 ft | 458 kts | 323° |
| 2026-05-05 13:23 | 26.29010 | 73.92993 | 31826 ft | 457 kts | 323° |
| 2026-05-05 13:23 | 26.34346 | 73.88996 | 31830 ft | 456 kts | 323° |
| 2026-05-05 13:24 | 26.39629 | 73.85034 | 31834 ft | 457 kts | 323° |
| 2026-05-05 13:24 | 26.44948 | 73.81040 | 31825 ft | 457 kts | 323° |
| 2026-05-05 13:25 | 26.50262 | 73.77046 | 31824 ft | 456 kts | 323° |
| 2026-05-05 13:25 | 26.55572 | 73.73050 | 31817 ft | 455 kts | 323° |
| 2026-05-05 13:26 | 26.60879 | 73.69052 | 31833 ft | 455 kts | 323° |
| 2026-05-05 13:26 | 26.66136 | 73.65088 | 31829 ft | 454 kts | 323° |
| 2026-05-05 13:27 | 26.71414 | 73.61101 | 31829 ft | 455 kts | 323° |
| 2026-05-05 13:27 | 26.76690 | 73.57113 | 31833 ft | 455 kts | 323° |
| 2026-05-05 13:28 | 26.82006 | 73.53091 | 31832 ft | 454 kts | 323° |
| 2026-05-05 13:28 | 26.87265 | 73.49106 | 31834 ft | 454 kts | 323° |
| 2026-05-05 13:29 | 26.92536 | 73.45108 | 31828 ft | 454 kts | 323° |
| 2026-05-05 13:29 | 26.97810 | 73.41103 | 31820 ft | 456 kts | 323° |
| 2026-05-05 13:30 | 27.03110 | 73.37073 | 31810 ft | 455 kts | 324° |
| 2026-05-05 13:30 | 27.08380 | 73.33051 | 31817 ft | 454 kts | 323° |
| 2026-05-05 13:31 | 27.13642 | 73.28997 | 31814 ft | 454 kts | 323° |
| 2026-05-05 13:31 | 27.18871 | 73.24985 | 31813 ft | 454 kts | 323° |
| 2026-05-05 13:32 | 27.24128 | 73.20965 | 31815 ft | 453 kts | 323° |
| 2026-05-05 13:32 | 27.29387 | 73.16942 | 31827 ft | 455 kts | 323° |
| 2026-05-05 13:33 | 27.34691 | 73.12880 | 31828 ft | 460 kts | 323° |
| 2026-05-05 13:33 | 27.40064 | 73.08762 | 31830 ft | 463 kts | 323° |
| 2026-05-05 13:34 | 27.45427 | 73.04646 | 31825 ft | 466 kts | 323° |
| 2026-05-05 13:34 | 27.50870 | 73.00465 | 31829 ft | 467 kts | 323° |
| 2026-05-05 13:35 | 27.56277 | 72.96306 | 31824 ft | 468 kts | 323° |
| 2026-05-05 13:35 | 27.61698 | 72.92131 | 31825 ft | 469 kts | 323° |
| 2026-05-05 13:36 | 27.67142 | 72.87933 | 31823 ft | 469 kts | 323° |
| 2026-05-05 13:36 | 27.72574 | 72.83739 | 31817 ft | 468 kts | 323° |
| 2026-05-05 13:37 | 27.77988 | 72.79553 | 31817 ft | 468 kts | 323° |
| 2026-05-05 13:37 | 27.83403 | 72.75363 | 31821 ft | 468 kts | 323° |
| 2026-05-05 13:38 | 27.88819 | 72.71165 | 31815 ft | 468 kts | 323° |
| 2026-05-05 13:38 | 27.94223 | 72.66973 | 31816 ft | 468 kts | 323° |
| 2026-05-05 13:39 | 27.99641 | 72.62764 | 31815 ft | 467 kts | 323° |
| 2026-05-05 13:39 | 28.05016 | 72.58582 | 31809 ft | 467 kts | 323° |
| 2026-05-05 13:40 | 28.10420 | 72.54375 | 31810 ft | 466 kts | 323° |
| 2026-05-05 13:40 | 28.15789 | 72.50186 | 31805 ft | 466 kts | 323° |
| 2026-05-05 13:41 | 28.21166 | 72.45987 | 31800 ft | 466 kts | 323° |
| 2026-05-05 13:41 | 28.26536 | 72.41789 | 31795 ft | 465 kts | 323° |
| 2026-05-05 13:42 | 28.31907 | 72.37586 | 31793 ft | 464 kts | 323° |
| 2026-05-05 13:42 | 28.37239 | 72.33400 | 31793 ft | 464 kts | 322° |
| 2026-05-05 13:43 | 28.42580 | 72.29162 | 31798 ft | 464 kts | 323° |
| 2026-05-05 13:43 | 28.47917 | 72.24903 | 31793 ft | 463 kts | 320° |
| 2026-05-05 13:44 | 28.52861 | 72.20129 | 31798 ft | 462 kts | 316° |
| 2026-05-05 13:44 | 28.57678 | 72.15234 | 31802 ft | 462 kts | 316° |
| 2026-05-05 13:45 | 28.62500 | 72.10356 | 31803 ft | 461 kts | 317° |
| 2026-05-05 13:45 | 28.67346 | 72.05473 | 31798 ft | 462 kts | 317° |
| 2026-05-05 13:46 | 28.72212 | 72.00571 | 31804 ft | 462 kts | 317° |
| 2026-05-05 13:46 | 28.77062 | 71.95683 | 31808 ft | 461 kts | 317° |
| 2026-05-05 13:47 | 28.81879 | 71.90820 | 31806 ft | 461 kts | 317° |
| 2026-05-05 13:47 | 28.86713 | 71.85936 | 31807 ft | 459 kts | 317° |
| 2026-05-05 13:48 | 28.91525 | 71.81067 | 31804 ft | 459 kts | 317° |
| 2026-05-05 13:48 | 28.96353 | 71.76174 | 31794 ft | 458 kts | 317° |
| 2026-05-05 13:49 | 29.01147 | 71.71310 | 31790 ft | 459 kts | 317° |
| 2026-05-05 13:49 | 29.05940 | 71.66441 | 31794 ft | 458 kts | 317° |
| 2026-05-05 13:50 | 29.10743 | 71.61556 | 31787 ft | 458 kts | 317° |
| 2026-05-05 13:50 | 29.15547 | 71.56660 | 31796 ft | 458 kts | 317° |
| 2026-05-05 13:51 | 29.20334 | 71.51775 | 31787 ft | 458 kts | 317° |
| 2026-05-05 13:51 | 29.25115 | 71.46892 | 31787 ft | 459 kts | 317° |
| 2026-05-05 13:52 | 29.29914 | 71.41988 | 31784 ft | 458 kts | 317° |
| 2026-05-05 13:52 | 29.34718 | 71.37116 | 31800 ft | 459 kts | 317° |
| 2026-05-05 13:53 | 29.39525 | 71.32231 | 31791 ft | 458 kts | 316° |
| 2026-05-05 13:53 | 29.44313 | 71.27322 | 31798 ft | 457 kts | 316° |
| 2026-05-05 13:54 | 29.49100 | 71.22436 | 31800 ft | 458 kts | 317° |
| 2026-05-05 13:54 | 29.53874 | 71.17571 | 31805 ft | 457 kts | 317° |
| 2026-05-05 13:55 | 29.58685 | 71.12667 | 31799 ft | 457 kts | 317° |
| 2026-05-05 13:55 | 29.63459 | 71.07797 | 31807 ft | 457 kts | 317° |
| 2026-05-05 13:56 | 29.68280 | 71.02877 | 31804 ft | 457 kts | 317° |
| 2026-05-05 13:56 | 29.73204 | 70.98213 | 31805 ft | 457 kts | 319° |
| 2026-05-05 13:57 | 29.78205 | 70.93585 | 31812 ft | 457 kts | 319° |
| 2026-05-05 13:57 | 29.83173 | 70.88957 | 31823 ft | 457 kts | 319° |
| 2026-05-05 13:58 | 29.88136 | 70.84309 | 31822 ft | 457 kts | 319° |
| 2026-05-05 13:58 | 29.93097 | 70.79652 | 31825 ft | 458 kts | 319° |
| 2026-05-05 13:59 | 30.00571 | 70.72624 | 31830 ft | 459 kts | 319° |
| 2026-05-05 14:00 | 30.08068 | 70.65560 | 31849 ft | 458 kts | 319° |
| 2026-05-05 14:00 | 30.13036 | 70.60870 | 31868 ft | 459 kts | 319° |
| 2026-05-05 14:01 | 30.17999 | 70.56176 | 31874 ft | 459 kts | 319° |
| 2026-05-05 14:01 | 30.22973 | 70.51474 | 31879 ft | 458 kts | 319° |
| 2026-05-05 14:02 | 30.28001 | 70.46831 | 31897 ft | 459 kts | 320° |
| 2026-05-05 14:02 | 30.33040 | 70.42195 | 31930 ft | 459 kts | 320° |
| 2026-05-05 14:03 | 30.38058 | 70.37564 | 31952 ft | 460 kts | 320° |
| 2026-05-05 14:03 | 30.43092 | 70.32896 | 31980 ft | 461 kts | 319° |
| 2026-05-05 14:04 | 30.48119 | 70.28186 | 32003 ft | 460 kts | 319° |
| 2026-05-05 14:04 | 30.53101 | 70.23538 | 32022 ft | 459 kts | 319° |
| 2026-05-05 14:05 | 30.58138 | 70.18852 | 32055 ft | 459 kts | 319° |
| 2026-05-05 14:05 | 30.63164 | 70.14175 | 32087 ft | 460 kts | 319° |
| 2026-05-05 14:06 | 30.68193 | 70.09489 | 32134 ft | 460 kts | 319° |
| 2026-05-05 14:06 | 30.73223 | 70.04797 | 32182 ft | 461 kts | 319° |
| 2026-05-05 14:07 | 30.78242 | 70.00109 | 32203 ft | 461 kts | 319° |
| 2026-05-05 14:07 | 30.83262 | 69.95412 | 32221 ft | 462 kts | 319° |
| 2026-05-05 14:08 | 30.88327 | 69.90669 | 32216 ft | 462 kts | 319° |
| 2026-05-05 14:08 | 30.93351 | 69.85956 | 32223 ft | 462 kts | 319° |
| 2026-05-05 14:09 | 30.98406 | 69.81207 | 32223 ft | 462 kts | 319° |
| 2026-05-05 14:09 | 31.03433 | 69.76479 | 32239 ft | 463 kts | 319° |
| 2026-05-05 14:10 | 31.08481 | 69.71723 | 32241 ft | 462 kts | 319° |
| 2026-05-05 14:10 | 31.13509 | 69.66979 | 32238 ft | 462 kts | 319° |
| 2026-05-05 14:11 | 31.18524 | 69.62239 | 32227 ft | 462 kts | 319° |
| 2026-05-05 14:11 | 31.23546 | 69.57488 | 32233 ft | 462 kts | 319° |
| 2026-05-05 14:12 | 31.28581 | 69.52717 | 32245 ft | 462 kts | 319° |
| 2026-05-05 14:12 | 31.33632 | 69.47926 | 32214 ft | 462 kts | 319° |
| 2026-05-05 14:13 | 31.38121 | 69.42578 | 32228 ft | 460 kts | 309° |
| 2026-05-05 14:13 | 31.42106 | 69.36649 | 32210 ft | 462 kts | 308° |
| 2026-05-05 14:14 | 31.46076 | 69.30656 | 32198 ft | 461 kts | 307° |
| 2026-05-05 14:14 | 31.50049 | 69.24691 | 32214 ft | 462 kts | 308° |
| 2026-05-05 14:15 | 31.54044 | 69.18752 | 32247 ft | 462 kts | 308° |
| 2026-05-05 14:15 | 31.58049 | 69.12814 | 32255 ft | 461 kts | 308° |
| 2026-05-05 14:16 | 31.62069 | 69.06852 | 32264 ft | 461 kts | 308° |
| 2026-05-05 14:16 | 31.66050 | 69.00938 | 32250 ft | 461 kts | 308° |
| 2026-05-05 14:17 | 31.70153 | 68.95084 | 32261 ft | 461 kts | 310° |
| 2026-05-05 14:17 | 31.74355 | 68.89259 | 32284 ft | 463 kts | 310° |
| 2026-05-05 14:18 | 31.78532 | 68.83442 | 32278 ft | 463 kts | 310° |
| 2026-05-05 14:18 | 31.82692 | 68.77622 | 32313 ft | 461 kts | 310° |
| 2026-05-05 14:19 | 31.86833 | 68.71815 | 32320 ft | 463 kts | 309° |
| 2026-05-05 14:19 | 31.91001 | 68.65958 | 32310 ft | 462 kts | 310° |
| 2026-05-05 14:20 | 31.95144 | 68.60129 | 32346 ft | 462 kts | 310° |
| 2026-05-05 14:20 | 31.99304 | 68.54265 | 32353 ft | 462 kts | 310° |
| 2026-05-05 14:21 | 32.03439 | 68.48428 | 32366 ft | 463 kts | 309° |
| 2026-05-05 14:21 | 32.07585 | 68.42567 | 32380 ft | 461 kts | 309° |
| 2026-05-05 14:22 | 32.11732 | 68.36695 | 32400 ft | 463 kts | 309° |
| 2026-05-05 14:22 | 32.15836 | 68.30834 | 32415 ft | 463 kts | 309° |
| 2026-05-05 14:23 | 32.19952 | 68.24922 | 32402 ft | 462 kts | 309° |
| 2026-05-05 14:23 | 32.24066 | 68.19043 | 32398 ft | 461 kts | 309° |
| 2026-05-05 14:24 | 32.28183 | 68.13171 | 32394 ft | 463 kts | 309° |
| 2026-05-05 14:24 | 32.32345 | 68.07232 | 32392 ft | 465 kts | 309° |
| 2026-05-05 14:25 | 32.36475 | 68.01328 | 32383 ft | 465 kts | 309° |
| 2026-05-05 14:25 | 32.40635 | 67.95373 | 32372 ft | 463 kts | 309° |
| 2026-05-05 14:26 | 32.44762 | 67.89456 | 32369 ft | 464 kts | 309° |
| 2026-05-05 14:26 | 32.48877 | 67.83546 | 32365 ft | 464 kts | 309° |
| 2026-05-05 14:27 | 32.53108 | 67.77670 | 32389 ft | 465 kts | 311° |
| 2026-05-05 14:27 | 32.57451 | 67.71917 | 32391 ft | 466 kts | 311° |
| 2026-05-05 14:28 | 32.61796 | 67.66145 | 32406 ft | 466 kts | 311° |
| 2026-05-05 14:28 | 32.66144 | 67.60337 | 32406 ft | 466 kts | 311° |
| 2026-05-05 14:29 | 32.70468 | 67.54541 | 32414 ft | 466 kts | 311° |
| 2026-05-05 14:29 | 32.74792 | 67.48735 | 32435 ft | 467 kts | 311° |
| 2026-05-05 14:30 | 32.79091 | 67.42891 | 32453 ft | 466 kts | 309° |
| 2026-05-05 14:30 | 32.83263 | 67.36938 | 32462 ft | 468 kts | 309° |
| 2026-05-05 14:31 | 32.87440 | 67.30907 | 32491 ft | 468 kts | 308° |
| 2026-05-05 14:31 | 32.91591 | 67.24893 | 32515 ft | 467 kts | 308° |
| 2026-05-05 14:32 | 32.95749 | 67.18910 | 32516 ft | 467 kts | 309° |
| 2026-05-05 14:32 | 32.99937 | 67.12898 | 32554 ft | 468 kts | 309° |
| 2026-05-05 14:33 | 33.04113 | 67.06898 | 32565 ft | 468 kts | 309° |
| 2026-05-05 14:33 | 33.08289 | 67.00889 | 32580 ft | 467 kts | 309° |
| 2026-05-05 14:34 | 33.12466 | 66.94869 | 32588 ft | 467 kts | 309° |
| 2026-05-05 14:34 | 33.16605 | 66.88889 | 32582 ft | 468 kts | 309° |
| 2026-05-05 14:35 | 33.20773 | 66.82861 | 32578 ft | 468 kts | 309° |
| 2026-05-05 14:35 | 33.24954 | 66.76806 | 32566 ft | 469 kts | 309° |
| 2026-05-05 14:36 | 33.29142 | 66.70731 | 32564 ft | 470 kts | 309° |
| 2026-05-05 14:36 | 33.33308 | 66.64677 | 32557 ft | 470 kts | 309° |
| 2026-05-05 14:37 | 33.37489 | 66.58591 | 32545 ft | 470 kts | 309° |
| 2026-05-05 14:37 | 33.41664 | 66.52504 | 32536 ft | 470 kts | 309° |
| 2026-05-05 14:38 | 33.45827 | 66.46424 | 32499 ft | 471 kts | 309° |
| 2026-05-05 14:38 | 33.50023 | 66.40268 | 32473 ft | 471 kts | 309° |
| 2026-05-05 14:39 | 33.54189 | 66.34132 | 32459 ft | 473 kts | 308° |
| 2026-05-05 14:39 | 33.58343 | 66.27930 | 32457 ft | 472 kts | 308° |
| 2026-05-05 14:40 | 33.62481 | 66.21769 | 32452 ft | 472 kts | 308° |
| 2026-05-05 14:40 | 33.66626 | 66.15623 | 32475 ft | 473 kts | 308° |
| 2026-05-05 14:41 | 33.70809 | 66.09421 | 32500 ft | 473 kts | 308° |
| 2026-05-05 14:41 | 33.74960 | 66.03259 | 32526 ft | 474 kts | 308° |
| 2026-05-05 14:42 | 33.79147 | 65.97032 | 32524 ft | 474 kts | 308° |
| 2026-05-05 14:42 | 33.83322 | 65.90814 | 32527 ft | 474 kts | 308° |
| 2026-05-05 14:43 | 33.87475 | 65.84618 | 32531 ft | 474 kts | 308° |
| 2026-05-05 14:43 | 33.91651 | 65.78375 | 32533 ft | 474 kts | 308° |
| 2026-05-05 14:44 | 33.95823 | 65.72128 | 32532 ft | 475 kts | 308° |
| 2026-05-05 14:44 | 33.99983 | 65.65890 | 32546 ft | 476 kts | 308° |
| 2026-05-05 14:45 | 34.04172 | 65.59595 | 32540 ft | 477 kts | 308° |
| 2026-05-05 14:45 | 34.08340 | 65.53323 | 32542 ft | 476 kts | 308° |
| 2026-05-05 14:46 | 34.12498 | 65.47070 | 32548 ft | 476 kts | 308° |
| 2026-05-05 14:46 | 34.16670 | 65.40784 | 32555 ft | 476 kts | 308° |
| 2026-05-05 14:47 | 34.20822 | 65.34518 | 32551 ft | 477 kts | 308° |
| 2026-05-05 14:47 | 34.24963 | 65.28187 | 32555 ft | 478 kts | 307° |
| 2026-05-05 14:48 | 34.29126 | 65.21827 | 32556 ft | 477 kts | 308° |
| 2026-05-05 14:48 | 34.33294 | 65.15488 | 32550 ft | 477 kts | 308° |
| 2026-05-05 14:49 | 34.37459 | 65.09158 | 32543 ft | 478 kts | 308° |
| 2026-05-05 14:49 | 34.41620 | 65.02824 | 32530 ft | 478 kts | 308° |
| 2026-05-05 14:50 | 34.45796 | 64.96456 | 32521 ft | 478 kts | 308° |
| 2026-05-05 14:50 | 34.49944 | 64.90118 | 32524 ft | 478 kts | 308° |
| 2026-05-05 14:51 | 34.54090 | 64.83762 | 32522 ft | 477 kts | 308° |
| 2026-05-05 14:51 | 34.58230 | 64.77397 | 32512 ft | 479 kts | 308° |
| 2026-05-05 14:52 | 34.62398 | 64.70978 | 32514 ft | 480 kts | 308° |
| 2026-05-05 14:52 | 34.66534 | 64.64600 | 32494 ft | 478 kts | 308° |
| 2026-05-05 14:53 | 34.70673 | 64.58204 | 32488 ft | 479 kts | 308° |
| 2026-05-05 14:53 | 34.74835 | 64.51761 | 32468 ft | 480 kts | 308° |
| 2026-05-05 14:54 | 34.78973 | 64.45342 | 32434 ft | 481 kts | 308° |
| 2026-05-05 14:54 | 34.83141 | 64.38866 | 32439 ft | 481 kts | 308° |
| 2026-05-05 14:55 | 34.87289 | 64.32395 | 32409 ft | 482 kts | 307° |
| 2026-05-05 14:55 | 34.91399 | 64.25902 | 32395 ft | 481 kts | 307° |
| 2026-05-05 14:56 | 34.95533 | 64.19401 | 32339 ft | 482 kts | 307° |
| 2026-05-05 14:56 | 34.99680 | 64.12901 | 32316 ft | 481 kts | 307° |
| 2026-05-05 14:57 | 35.03807 | 64.06428 | 32276 ft | 481 kts | 307° |
| 2026-05-05 14:57 | 35.07941 | 63.99936 | 32264 ft | 482 kts | 307° |
| 2026-05-05 14:58 | 35.12103 | 63.93384 | 32253 ft | 484 kts | 307° |
| 2026-05-05 14:58 | 35.16248 | 63.86844 | 32240 ft | 484 kts | 307° |
| 2026-05-05 14:59 | 35.20414 | 63.80262 | 32217 ft | 484 kts | 307° |
| 2026-05-05 14:59 | 35.24544 | 63.73724 | 32154 ft | 484 kts | 307° |
| 2026-05-05 15:00 | 35.28009 | 63.68232 | 32136 ft | 482 kts | 307° |
| 2026-05-05 15:00 | 35.32824 | 63.60603 | 32126 ft | 482 kts | 307° |
| 2026-05-05 15:01 | 35.36955 | 63.54073 | 32108 ft | 484 kts | 307° |
| 2026-05-05 15:01 | 35.41115 | 63.47483 | 32088 ft | 484 kts | 307° |
| 2026-05-05 15:02 | 35.45266 | 63.40895 | 32080 ft | 484 kts | 307° |
| 2026-05-05 15:02 | 35.49412 | 63.34301 | 32072 ft | 484 kts | 306° |
| 2026-05-05 15:03 | 35.53504 | 63.27698 | 32058 ft | 484 kts | 306° |
| 2026-05-05 15:03 | 35.57616 | 63.21072 | 32034 ft | 485 kts | 306° |
| 2026-05-05 15:04 | 35.61712 | 63.14442 | 32023 ft | 485 kts | 306° |
| 2026-05-05 15:04 | 35.65808 | 63.07762 | 32008 ft | 484 kts | 306° |
| 2026-05-05 15:05 | 35.71917 | 62.97789 | 31971 ft | 484 kts | 306° |
| 2026-05-05 15:06 | 35.76002 | 62.91109 | 31972 ft | 484 kts | 306° |
| 2026-05-05 15:06 | 35.80079 | 62.84428 | 31982 ft | 484 kts | 306° |
| 2026-05-05 15:07 | 35.84151 | 62.77743 | 31985 ft | 484 kts | 306° |
| 2026-05-05 15:07 | 35.88217 | 62.71056 | 31975 ft | 484 kts | 306° |
| 2026-05-05 15:08 | 35.92295 | 62.64337 | 31955 ft | 485 kts | 306° |
| 2026-05-05 15:08 | 35.96341 | 62.57656 | 31944 ft | 484 kts | 306° |
| 2026-05-05 15:09 | 36.00402 | 62.50937 | 31949 ft | 485 kts | 306° |
| 2026-05-05 15:09 | 36.04467 | 62.44200 | 31946 ft | 486 kts | 306° |
| 2026-05-05 15:10 | 36.08386 | 62.37346 | 31947 ft | 484 kts | 300° |
| 2026-05-05 15:10 | 36.11358 | 62.29758 | 31949 ft | 486 kts | 292° |
| 2026-05-05 15:11 | 36.13969 | 62.22031 | 31953 ft | 485 kts | 292° |
| 2026-05-05 15:11 | 36.16585 | 62.14312 | 31950 ft | 484 kts | 292° |
| 2026-05-05 15:12 | 36.19235 | 62.06583 | 31947 ft | 484 kts | 292° |
| 2026-05-05 15:12 | 36.21872 | 61.98909 | 31936 ft | 485 kts | 292° |
| 2026-05-05 15:13 | 36.24539 | 61.91132 | 31938 ft | 485 kts | 292° |
| 2026-05-05 15:13 | 36.27183 | 61.83406 | 31935 ft | 485 kts | 292° |
| 2026-05-05 15:14 | 36.29817 | 61.75687 | 31941 ft | 485 kts | 292° |
| 2026-05-05 15:14 | 36.32457 | 61.67931 | 31937 ft | 485 kts | 292° |
| 2026-05-05 15:15 | 36.35089 | 61.60180 | 31929 ft | 484 kts | 292° |
| 2026-05-05 15:15 | 36.37701 | 61.52465 | 31923 ft | 485 kts | 292° |
| 2026-05-05 15:16 | 36.40326 | 61.44696 | 31912 ft | 484 kts | 292° |
| 2026-05-05 15:16 | 36.42951 | 61.36903 | 31905 ft | 485 kts | 292° |
| 2026-05-05 15:17 | 36.45520 | 61.29175 | 31896 ft | 484 kts | 291° |
| 2026-05-05 15:17 | 36.48086 | 61.21390 | 31900 ft | 485 kts | 291° |
| 2026-05-05 15:18 | 36.50677 | 61.13591 | 31904 ft | 483 kts | 291° |
| 2026-05-05 15:18 | 36.53251 | 61.05866 | 31888 ft | 484 kts | 291° |
| 2026-05-05 15:19 | 36.55853 | 60.98040 | 31882 ft | 485 kts | 291° |
| 2026-05-05 15:19 | 36.58419 | 60.90305 | 31887 ft | 484 kts | 291° |
| 2026-05-05 15:20 | 36.61010 | 60.82472 | 31889 ft | 485 kts | 291° |
| 2026-05-05 15:20 | 36.63573 | 60.74703 | 31898 ft | 483 kts | 291° |
| 2026-05-05 15:21 | 36.66139 | 60.66904 | 31906 ft | 484 kts | 291° |
| 2026-05-05 15:21 | 36.68688 | 60.59136 | 31904 ft | 484 kts | 291° |
| 2026-05-05 15:22 | 36.71242 | 60.51332 | 31903 ft | 486 kts | 291° |
| 2026-05-05 15:22 | 36.73807 | 60.43475 | 31908 ft | 484 kts | 291° |
| 2026-05-05 15:23 | 36.76356 | 60.35644 | 31926 ft | 484 kts | 291° |
| 2026-05-05 15:23 | 36.78852 | 60.27849 | 31947 ft | 484 kts | 290° |
| 2026-05-05 15:24 | 36.81359 | 60.19987 | 31969 ft | 483 kts | 290° |
| 2026-05-05 15:24 | 36.83864 | 60.12192 | 31970 ft | 484 kts | 290° |
| 2026-05-05 15:25 | 36.86392 | 60.04338 | 31974 ft | 485 kts | 291° |
| 2026-05-05 15:25 | 36.88926 | 59.96451 | 31992 ft | 483 kts | 290° |
| 2026-05-05 15:26 | 36.91429 | 59.88640 | 32039 ft | 483 kts | 290° |
| 2026-05-05 15:26 | 36.93919 | 59.80846 | 32071 ft | 483 kts | 290° |
| 2026-05-05 15:27 | 36.96427 | 59.72973 | 32104 ft | 483 kts | 291° |
| 2026-05-05 15:27 | 36.97667 | 59.69075 | 32305 ft | 479 kts | 290° |
| 2026-05-05 15:27 | 36.98885 | 59.65241 | 32545 ft | 473 kts | 290° |
| 2026-05-05 15:27 | 37.00104 | 59.61399 | 32791 ft | 469 kts | 290° |
| 2026-05-05 15:28 | 37.01304 | 59.57612 | 33018 ft | 467 kts | 290° |
| 2026-05-05 15:28 | 37.02501 | 59.53826 | 33267 ft | 465 kts | 290° |
| 2026-05-05 15:28 | 37.03696 | 59.50044 | 33504 ft | 463 kts | 291° |
| 2026-05-05 15:28 | 37.04899 | 59.46228 | 33745 ft | 461 kts | 290° |
| 2026-05-05 15:29 | 37.06081 | 59.42475 | 33993 ft | 459 kts | 290° |
| 2026-05-05 15:29 | 37.07239 | 59.38795 | 34183 ft | 457 kts | 290° |
| 2026-05-05 15:29 | 37.08415 | 59.35052 | 34243 ft | 459 kts | 291° |
| 2026-05-05 15:30 | 37.10743 | 59.27499 | 34240 ft | 465 kts | 290° |
| 2026-05-05 15:30 | 37.13084 | 59.19889 | 34262 ft | 467 kts | 290° |
| 2026-05-05 15:31 | 37.15453 | 59.12252 | 34251 ft | 466 kts | 290° |
| 2026-05-05 15:31 | 37.17806 | 59.04683 | 34262 ft | 465 kts | 290° |
| 2026-05-05 15:32 | 37.20171 | 58.97059 | 34259 ft | 466 kts | 290° |
| 2026-05-05 15:32 | 37.22517 | 58.89479 | 34282 ft | 464 kts | 290° |
| 2026-05-05 15:33 | 37.24860 | 58.81890 | 34277 ft | 464 kts | 290° |
| 2026-05-05 15:33 | 37.27185 | 58.74334 | 34275 ft | 463 kts | 290° |
| 2026-05-05 15:34 | 37.29520 | 58.66727 | 34274 ft | 463 kts | 290° |
| 2026-05-05 15:34 | 37.31845 | 58.59134 | 34276 ft | 461 kts | 290° |
| 2026-05-05 15:35 | 37.34140 | 58.51617 | 34263 ft | 462 kts | 290° |
| 2026-05-05 15:35 | 37.36456 | 58.44012 | 34258 ft | 462 kts | 289° |
| 2026-05-05 15:36 | 37.38754 | 58.36445 | 34234 ft | 463 kts | 289° |
| 2026-05-05 15:36 | 37.41039 | 58.28799 | 34233 ft | 462 kts | 288° |
| 2026-05-05 15:37 | 37.43297 | 58.21188 | 34220 ft | 461 kts | 289° |
| 2026-05-05 15:37 | 37.45569 | 58.13597 | 34223 ft | 462 kts | 289° |
| 2026-05-05 15:38 | 37.47848 | 58.05998 | 34169 ft | 461 kts | 289° |
| 2026-05-05 15:38 | 37.50116 | 57.98426 | 34178 ft | 461 kts | 288° |
| 2026-05-05 15:39 | 37.52385 | 57.90830 | 34164 ft | 462 kts | 289° |
| 2026-05-05 15:39 | 37.54651 | 57.83223 | 34160 ft | 462 kts | 288° |
| 2026-05-05 15:40 | 37.56923 | 57.75577 | 34164 ft | 462 kts | 289° |
| 2026-05-05 15:40 | 37.59179 | 57.67958 | 34157 ft | 463 kts | 289° |
| 2026-05-05 15:41 | 37.61433 | 57.60329 | 34121 ft | 462 kts | 289° |
| 2026-05-05 15:41 | 37.63691 | 57.52668 | 34090 ft | 461 kts | 289° |
| 2026-05-05 15:42 | 37.65931 | 57.45043 | 34081 ft | 461 kts | 289° |
| 2026-05-05 15:42 | 37.68164 | 57.37421 | 34082 ft | 460 kts | 289° |
| 2026-05-05 15:43 | 37.70370 | 57.29792 | 34093 ft | 459 kts | 288° |
| 2026-05-05 15:43 | 37.72543 | 57.22182 | 34098 ft | 458 kts | 288° |
| 2026-05-05 15:44 | 37.74723 | 57.14621 | 34091 ft | 457 kts | 288° |
| 2026-05-05 15:44 | 37.76926 | 57.07000 | 34093 ft | 457 kts | 288° |
| 2026-05-05 15:45 | 37.79120 | 56.99403 | 34094 ft | 457 kts | 288° |
| 2026-05-05 15:45 | 37.81295 | 56.91857 | 34081 ft | 457 kts | 288° |
| 2026-05-05 15:46 | 37.83487 | 56.84225 | 34063 ft | 457 kts | 288° |
| 2026-05-05 15:46 | 37.85661 | 56.76637 | 34047 ft | 456 kts | 288° |
| 2026-05-05 15:47 | 37.87836 | 56.69022 | 34039 ft | 458 kts | 288° |
| 2026-05-05 15:47 | 37.90004 | 56.61413 | 34039 ft | 458 kts | 287° |
| 2026-05-05 15:48 | 37.92178 | 56.53759 | 34020 ft | 458 kts | 287° |
| 2026-05-05 15:48 | 37.94338 | 56.46130 | 34012 ft | 457 kts | 287° |
| 2026-05-05 15:49 | 37.96486 | 56.38526 | 34003 ft | 456 kts | 287° |
| 2026-05-05 15:49 | 37.98620 | 56.30893 | 33987 ft | 458 kts | 285° |
| 2026-05-05 15:50 | 38.00727 | 56.23217 | 33967 ft | 459 kts | 286° |
| 2026-05-05 15:50 | 38.02866 | 56.15505 | 33964 ft | 461 kts | 286° |
| 2026-05-05 15:51 | 38.05025 | 56.07751 | 33960 ft | 461 kts | 286° |
| 2026-05-05 15:51 | 38.07168 | 56.00052 | 33951 ft | 460 kts | 285° |
| 2026-05-05 15:52 | 38.09305 | 55.92352 | 33931 ft | 460 kts | 285° |
| 2026-05-05 15:52 | 38.11440 | 55.84634 | 33915 ft | 462 kts | 285° |
| 2026-05-05 15:53 | 38.13579 | 55.76867 | 33906 ft | 464 kts | 285° |
| 2026-05-05 15:53 | 38.15715 | 55.69103 | 33882 ft | 461 kts | 285° |
| 2026-05-05 15:54 | 38.17832 | 55.61381 | 33890 ft | 462 kts | 285° |
| 2026-05-05 15:54 | 38.19970 | 55.53559 | 33883 ft | 465 kts | 285° |
| 2026-05-05 15:55 | 38.22104 | 55.45729 | 33889 ft | 470 kts | 284° |
| 2026-05-05 15:55 | 38.24262 | 55.37788 | 33884 ft | 475 kts | 284° |
| 2026-05-05 15:56 | 38.26428 | 55.29711 | 33881 ft | 477 kts | 283° |
| 2026-05-05 15:56 | 38.28551 | 55.21682 | 33878 ft | 479 kts | 283° |
| 2026-05-05 15:57 | 38.30720 | 55.13561 | 33874 ft | 481 kts | 283° |
| 2026-05-05 15:57 | 38.32893 | 55.05453 | 33881 ft | 482 kts | 283° |
| 2026-05-05 15:58 | 38.35072 | 54.97309 | 33885 ft | 482 kts | 283° |
| 2026-05-05 15:58 | 38.37243 | 54.89171 | 33883 ft | 483 kts | 283° |
| 2026-05-05 15:59 | 38.39400 | 54.81057 | 33876 ft | 482 kts | 284° |
| 2026-05-05 15:59 | 38.41571 | 54.72865 | 33883 ft | 482 kts | 284° |
| 2026-05-05 16:00 | 38.43721 | 54.64727 | 33879 ft | 480 kts | 283° |
| 2026-05-05 16:00 | 38.45860 | 54.56607 | 33871 ft | 480 kts | 283° |
| 2026-05-05 16:01 | 38.47994 | 54.48476 | 33872 ft | 481 kts | 283° |
| 2026-05-05 16:01 | 38.50122 | 54.40342 | 33872 ft | 481 kts | 283° |
| 2026-05-05 16:02 | 38.52231 | 54.32232 | 33878 ft | 479 kts | 283° |
| 2026-05-05 16:02 | 38.54293 | 54.24102 | 33878 ft | 479 kts | 283° |
| 2026-05-05 16:03 | 38.56386 | 54.15920 | 33877 ft | 480 kts | 283° |
| 2026-05-05 16:03 | 38.58470 | 54.07829 | 33884 ft | 479 kts | 283° |
| 2026-05-05 16:04 | 38.60571 | 53.99667 | 33884 ft | 478 kts | 283° |
| 2026-05-05 16:04 | 38.62642 | 53.91594 | 33875 ft | 477 kts | 283° |
| 2026-05-05 16:05 | 38.64726 | 53.83443 | 33874 ft | 478 kts | 283° |
| 2026-05-05 16:05 | 38.66801 | 53.75303 | 33881 ft | 479 kts | 283° |
| 2026-05-05 16:06 | 38.68887 | 53.67090 | 33887 ft | 480 kts | 282° |
| 2026-05-05 16:06 | 38.70954 | 53.58927 | 33884 ft | 480 kts | 282° |
| 2026-05-05 16:07 | 38.73021 | 53.50738 | 33889 ft | 481 kts | 282° |
| 2026-05-05 16:07 | 38.75092 | 53.42505 | 33896 ft | 482 kts | 282° |
| 2026-05-05 16:08 | 38.77148 | 53.34303 | 33905 ft | 483 kts | 282° |
| 2026-05-05 16:08 | 38.79178 | 53.25997 | 33912 ft | 483 kts | 281° |
| 2026-05-05 16:09 | 38.81205 | 53.17717 | 33919 ft | 484 kts | 281° |
| 2026-05-05 16:09 | 38.83255 | 53.09412 | 33923 ft | 486 kts | 281° |
| 2026-05-05 16:10 | 38.85303 | 53.01129 | 33915 ft | 486 kts | 281° |
| 2026-05-05 16:10 | 38.87364 | 52.92768 | 33901 ft | 487 kts | 281° |
| 2026-05-05 16:11 | 38.89405 | 52.84456 | 33901 ft | 487 kts | 281° |
| 2026-05-05 16:12 | 38.93486 | 52.67751 | 33912 ft | 487 kts | 281° |
| 2026-05-05 16:13 | 38.98562 | 52.46812 | 33919 ft | 488 kts | 281° |
| 2026-05-05 16:13 | 39.00572 | 52.38468 | 33923 ft | 487 kts | 281° |
| 2026-05-05 16:14 | 39.04539 | 52.21628 | 33940 ft | 489 kts | 280° |
| 2026-05-05 16:15 | 39.08509 | 52.04851 | 33932 ft | 488 kts | 280° |
| 2026-05-05 16:16 | 39.12481 | 51.88021 | 33943 ft | 488 kts | 280° |
| 2026-05-05 16:17 | 39.15445 | 51.75382 | 33945 ft | 490 kts | 280° |
| 2026-05-05 16:18 | 39.18408 | 51.62693 | 33951 ft | 489 kts | 279° |
| 2026-05-05 16:19 | 39.21354 | 51.50007 | 33947 ft | 490 kts | 279° |
| 2026-05-05 16:19 | 39.24285 | 51.37313 | 33947 ft | 489 kts | 279° |
| 2026-05-05 16:20 | 39.28086 | 51.20432 | 33950 ft | 488 kts | 278° |
| 2026-05-05 16:22 | 39.32881 | 50.99266 | 33949 ft | 487 kts | 279° |
| 2026-05-05 16:23 | 39.36685 | 50.82411 | 33949 ft | 485 kts | 279° |
| 2026-05-05 16:23 | 39.39520 | 50.69762 | 33952 ft | 484 kts | 278° |
| 2026-05-05 16:24 | 39.41394 | 50.61357 | 33955 ft | 485 kts | 278° |
| 2026-05-05 16:25 | 39.44204 | 50.48702 | 33957 ft | 484 kts | 278° |
| 2026-05-05 16:25 | 39.47001 | 50.36030 | 33954 ft | 486 kts | 278° |
| 2026-05-05 16:26 | 39.50637 | 50.19102 | 33940 ft | 485 kts | 277° |
| 2026-05-05 16:27 | 39.52469 | 50.10642 | 33950 ft | 484 kts | 278° |
| 2026-05-05 16:27 | 39.54298 | 50.02208 | 33948 ft | 485 kts | 278° |
| 2026-05-05 16:28 | 39.56135 | 49.93723 | 33948 ft | 483 kts | 278° |
| 2026-05-05 16:28 | 39.57956 | 49.85275 | 33947 ft | 483 kts | 277° |
| 2026-05-05 16:29 | 39.59759 | 49.76870 | 33945 ft | 482 kts | 278° |
| 2026-05-05 16:29 | 39.61562 | 49.68449 | 33946 ft | 479 kts | 278° |
| 2026-05-05 16:30 | 39.63344 | 49.60081 | 33944 ft | 479 kts | 278° |
| 2026-05-05 16:30 | 39.65120 | 49.51707 | 33948 ft | 479 kts | 278° |
| 2026-05-05 16:31 | 39.66899 | 49.43289 | 33943 ft | 479 kts | 278° |
| 2026-05-05 16:31 | 39.68671 | 49.34871 | 33952 ft | 480 kts | 277° |
| 2026-05-05 16:32 | 39.70386 | 49.26501 | 33943 ft | 476 kts | 277° |
| 2026-05-05 16:32 | 39.72096 | 49.18140 | 33943 ft | 476 kts | 277° |
| 2026-05-05 16:33 | 39.73814 | 49.09824 | 33943 ft | 476 kts | 277° |
| 2026-05-05 16:33 | 39.75554 | 49.01415 | 33941 ft | 478 kts | 278° |
| 2026-05-05 16:34 | 39.77286 | 48.93028 | 33946 ft | 478 kts | 278° |
| 2026-05-05 16:34 | 39.79017 | 48.84616 | 33931 ft | 476 kts | 278° |
| 2026-05-05 16:35 | 39.80725 | 48.76280 | 33939 ft | 474 kts | 277° |
| 2026-05-05 16:35 | 39.82423 | 48.67953 | 33932 ft | 474 kts | 277° |
| 2026-05-05 16:36 | 39.84114 | 48.59627 | 33930 ft | 473 kts | 277° |
| 2026-05-05 16:36 | 39.85805 | 48.51264 | 33926 ft | 474 kts | 277° |
| 2026-05-05 16:37 | 39.87494 | 48.42883 | 33924 ft | 474 kts | 277° |
| 2026-05-05 16:37 | 39.89165 | 48.34558 | 33914 ft | 473 kts | 277° |
| 2026-05-05 16:38 | 39.90789 | 48.26218 | 33915 ft | 471 kts | 276° |
| 2026-05-05 16:38 | 39.92410 | 48.17899 | 33920 ft | 471 kts | 277° |
| 2026-05-05 16:39 | 39.94054 | 48.09547 | 33912 ft | 471 kts | 277° |
| 2026-05-05 16:39 | 39.95697 | 48.01214 | 33909 ft | 472 kts | 277° |
| 2026-05-05 16:40 | 39.97333 | 47.92902 | 33899 ft | 471 kts | 277° |
| 2026-05-05 16:40 | 39.98956 | 47.84620 | 33905 ft | 470 kts | 277° |
| 2026-05-05 16:41 | 40.00585 | 47.76261 | 33901 ft | 471 kts | 277° |
| 2026-05-05 16:41 | 40.02204 | 47.67922 | 33907 ft | 472 kts | 277° |
| 2026-05-05 16:42 | 40.03819 | 47.59571 | 33911 ft | 473 kts | 277° |
| 2026-05-05 16:42 | 40.05427 | 47.51226 | 33915 ft | 472 kts | 277° |
| 2026-05-05 16:43 | 40.07032 | 47.42860 | 33914 ft | 472 kts | 276° |
| 2026-05-05 16:43 | 40.08632 | 47.34479 | 33912 ft | 473 kts | 276° |
| 2026-05-05 16:44 | 40.10188 | 47.26070 | 33902 ft | 470 kts | 276° |
| 2026-05-05 16:44 | 40.11734 | 47.17711 | 33906 ft | 470 kts | 276° |
| 2026-05-05 16:45 | 40.13304 | 47.09308 | 33909 ft | 473 kts | 276° |
| 2026-05-05 16:45 | 40.14870 | 47.00956 | 33908 ft | 472 kts | 276° |
| 2026-05-05 16:46 | 40.16445 | 46.92536 | 33918 ft | 472 kts | 276° |
| 2026-05-05 16:46 | 40.18010 | 46.84132 | 33931 ft | 473 kts | 276° |
| 2026-05-05 16:47 | 40.19579 | 46.75660 | 33943 ft | 474 kts | 276° |
| 2026-05-05 16:47 | 40.21135 | 46.67227 | 33967 ft | 475 kts | 277° |
| 2026-05-05 16:48 | 40.22694 | 46.58743 | 33992 ft | 475 kts | 276° |
| 2026-05-05 16:48 | 40.24234 | 46.50328 | 34017 ft | 476 kts | 276° |
| 2026-05-05 16:49 | 40.25778 | 46.41850 | 34033 ft | 475 kts | 277° |
| 2026-05-05 16:49 | 40.27313 | 46.33374 | 34037 ft | 476 kts | 276° |
| 2026-05-05 16:50 | 40.28798 | 46.24862 | 34034 ft | 476 kts | 276° |
| 2026-05-05 16:50 | 40.30304 | 46.16306 | 34043 ft | 477 kts | 276° |
| 2026-05-05 16:51 | 40.31818 | 46.07793 | 34048 ft | 479 kts | 276° |
| 2026-05-05 16:51 | 40.33349 | 45.99186 | 34047 ft | 480 kts | 276° |
| 2026-05-05 16:52 | 40.34871 | 45.90603 | 34059 ft | 481 kts | 276° |
| 2026-05-05 16:52 | 40.36385 | 45.82014 | 34057 ft | 481 kts | 277° |
| 2026-05-05 16:53 | 40.37901 | 45.73385 | 34055 ft | 482 kts | 277° |
| 2026-05-05 16:53 | 40.39405 | 45.64774 | 34048 ft | 483 kts | 277° |
| 2026-05-05 16:54 | 40.40910 | 45.56127 | 34048 ft | 483 kts | 277° |
| 2026-05-05 16:54 | 40.42410 | 45.47464 | 34045 ft | 481 kts | 277° |
| 2026-05-05 16:55 | 40.43898 | 45.38825 | 34040 ft | 483 kts | 277° |
| 2026-05-05 16:55 | 40.45364 | 45.30166 | 34034 ft | 484 kts | 276° |
| 2026-05-05 16:56 | 40.46797 | 45.21474 | 34025 ft | 485 kts | 276° |
| 2026-05-05 16:56 | 40.48262 | 45.12723 | 34021 ft | 486 kts | 277° |
| 2026-05-05 16:57 | 40.49731 | 45.04010 | 34013 ft | 486 kts | 277° |
| 2026-05-05 16:57 | 40.51194 | 44.95310 | 34005 ft | 486 kts | 277° |
| 2026-05-05 16:58 | 40.52660 | 44.86556 | 34001 ft | 487 kts | 277° |
| 2026-05-05 16:58 | 40.54120 | 44.77788 | 33998 ft | 486 kts | 277° |
| 2026-05-05 16:59 | 40.55572 | 44.69025 | 34002 ft | 488 kts | 277° |
| 2026-05-05 16:59 | 40.57030 | 44.60180 | 34008 ft | 489 kts | 277° |
| 2026-05-05 17:00 | 40.58466 | 44.51425 | 34009 ft | 489 kts | 278° |
| 2026-05-05 17:00 | 40.59905 | 44.42604 | 34023 ft | 490 kts | 278° |
| 2026-05-05 17:01 | 40.61341 | 44.33756 | 34018 ft | 491 kts | 277° |
| 2026-05-05 17:01 | 40.62726 | 44.24879 | 34016 ft | 491 kts | 277° |
| 2026-05-05 17:02 | 40.64118 | 44.16007 | 34018 ft | 491 kts | 277° |
| 2026-05-05 17:02 | 40.65528 | 44.07134 | 34002 ft | 491 kts | 277° |
| 2026-05-05 17:03 | 40.66936 | 43.98279 | 33995 ft | 492 kts | 278° |
| 2026-05-05 17:03 | 40.68343 | 43.89381 | 33982 ft | 493 kts | 278° |
| 2026-05-05 17:04 | 40.69743 | 43.80489 | 33977 ft | 495 kts | 278° |
| 2026-05-05 17:04 | 40.71145 | 43.71536 | 33975 ft | 494 kts | 278° |
| 2026-05-05 17:05 | 40.72540 | 43.62579 | 33974 ft | 494 kts | 277° |
| 2026-05-05 17:05 | 40.73922 | 43.53657 | 33999 ft | 494 kts | 278° |
| 2026-05-05 17:06 | 40.75296 | 43.44729 | 34000 ft | 496 kts | 278° |
| 2026-05-05 17:06 | 40.76680 | 43.35692 | 34000 ft | 498 kts | 278° |
| 2026-05-05 17:07 | 40.78020 | 43.26647 | 34002 ft | 498 kts | 277° |
| 2026-05-05 17:07 | 40.79348 | 43.17610 | 34002 ft | 499 kts | 277° |
| 2026-05-05 17:08 | 40.80694 | 43.08601 | 33994 ft | 499 kts | 277° |
| 2026-05-05 17:08 | 40.82042 | 42.99596 | 33995 ft | 498 kts | 277° |
| 2026-05-05 17:09 | 40.83393 | 42.90533 | 33989 ft | 498 kts | 277° |
| 2026-05-05 17:09 | 40.84728 | 42.81520 | 33994 ft | 500 kts | 277° |
| 2026-05-05 17:10 | 40.86073 | 42.72390 | 33993 ft | 501 kts | 277° |
| 2026-05-05 17:10 | 40.87408 | 42.63269 | 33996 ft | 503 kts | 277° |
| 2026-05-05 17:11 | 40.88741 | 42.54120 | 33998 ft | 504 kts | 277° |
| 2026-05-05 17:11 | 40.90064 | 42.44978 | 33990 ft | 504 kts | 277° |
| 2026-05-05 17:12 | 40.91379 | 42.35843 | 33993 ft | 504 kts | 277° |
| 2026-05-05 17:12 | 40.92658 | 42.26640 | 33989 ft | 503 kts | 276° |
| 2026-05-05 17:13 | 40.93920 | 42.17477 | 33983 ft | 504 kts | 276° |
| 2026-05-05 17:13 | 40.95204 | 42.08299 | 33980 ft | 506 kts | 276° |
| 2026-05-05 17:14 | 40.96503 | 41.99043 | 33976 ft | 508 kts | 276° |
| 2026-05-05 17:14 | 40.97798 | 41.89778 | 33976 ft | 508 kts | 277° |
| 2026-05-05 17:15 | 40.99086 | 41.80510 | 33999 ft | 508 kts | 276° |
| 2026-05-05 17:15 | 41.00359 | 41.71282 | 33999 ft | 508 kts | 276° |
| 2026-05-05 17:16 | 41.01627 | 41.62032 | 33997 ft | 508 kts | 276° |
| 2026-05-05 17:16 | 41.02890 | 41.52757 | 33987 ft | 509 kts | 277° |
| 2026-05-05 17:17 | 41.04145 | 41.43487 | 33969 ft | 510 kts | 276° |
| 2026-05-05 17:17 | 41.05405 | 41.34119 | 33962 ft | 511 kts | 276° |
| 2026-05-05 17:18 | 41.06602 | 41.24815 | 33961 ft | 511 kts | 275° |
| 2026-05-05 17:18 | 41.07811 | 41.15443 | 33981 ft | 512 kts | 276° |
| 2026-05-05 17:19 | 41.09043 | 41.06035 | 33997 ft | 514 kts | 276° |
| 2026-05-05 17:19 | 41.10274 | 40.96642 | 33991 ft | 514 kts | 276° |
| 2026-05-05 17:20 | 41.11500 | 40.87217 | 34015 ft | 514 kts | 276° |
| 2026-05-05 17:20 | 41.12716 | 40.77814 | 33999 ft | 513 kts | 276° |
| 2026-05-05 17:21 | 41.13920 | 40.68445 | 34013 ft | 513 kts | 276° |
| 2026-05-05 17:22 | 41.15713 | 40.54380 | 34027 ft | 514 kts | 276° |
| 2026-05-05 17:22 | 41.16906 | 40.44936 | 34024 ft | 513 kts | 276° |
| 2026-05-05 17:23 | 41.18086 | 40.35541 | 34026 ft | 514 kts | 276° |
| 2026-05-05 17:23 | 41.19227 | 40.26060 | 34035 ft | 514 kts | 275° |
| 2026-05-05 17:24 | 41.20355 | 40.16614 | 34028 ft | 515 kts | 276° |
| 2026-05-05 17:24 | 41.21505 | 40.07162 | 34032 ft | 515 kts | 276° |
| 2026-05-05 17:25 | 41.22659 | 39.97717 | 34041 ft | 515 kts | 276° |
| 2026-05-05 17:25 | 41.23804 | 39.88276 | 34033 ft | 515 kts | 276° |
| 2026-05-05 17:26 | 41.24944 | 39.78810 | 34031 ft | 514 kts | 276° |
| 2026-05-05 17:26 | 41.26076 | 39.69331 | 34030 ft | 515 kts | 276° |
| 2026-05-05 17:27 | 41.27203 | 39.59841 | 34030 ft | 516 kts | 276° |
| 2026-05-05 17:27 | 41.28322 | 39.50339 | 34036 ft | 517 kts | 276° |
| 2026-05-05 17:28 | 41.29434 | 39.40826 | 34035 ft | 517 kts | 276° |
| 2026-05-05 17:28 | 41.30527 | 39.31337 | 34034 ft | 517 kts | 275° |
| 2026-05-05 17:29 | 41.31575 | 39.21756 | 34034 ft | 516 kts | 276° |
| 2026-05-05 17:29 | 41.32638 | 39.12235 | 34036 ft | 516 kts | 276° |
| 2026-05-05 17:30 | 41.33707 | 39.02782 | 34035 ft | 515 kts | 276° |
| 2026-05-05 17:30 | 41.34780 | 38.93254 | 34040 ft | 516 kts | 276° |
| 2026-05-05 17:31 | 41.35844 | 38.83734 | 34038 ft | 517 kts | 276° |
| 2026-05-05 17:31 | 41.36907 | 38.74150 | 34038 ft | 518 kts | 276° |
| 2026-05-05 17:32 | 41.37958 | 38.64596 | 34036 ft | 518 kts | 276° |
| 2026-05-05 17:32 | 41.39000 | 38.55059 | 34041 ft | 518 kts | 276° |
| 2026-05-05 17:33 | 41.40032 | 38.45531 | 34034 ft | 517 kts | 277° |
| 2026-05-05 17:33 | 41.41061 | 38.35947 | 34038 ft | 518 kts | 277° |
| 2026-05-05 17:34 | 41.42047 | 38.26342 | 34041 ft | 519 kts | 276° |
| 2026-05-05 17:34 | 41.43012 | 38.16810 | 34034 ft | 518 kts | 276° |
| 2026-05-05 17:35 | 41.44008 | 38.07193 | 34039 ft | 518 kts | 276° |
| 2026-05-05 17:35 | 41.45004 | 37.97614 | 34039 ft | 518 kts | 276° |
| 2026-05-05 17:36 | 41.45991 | 37.88050 | 34044 ft | 518 kts | 277° |
| 2026-05-05 17:36 | 41.46971 | 37.78472 | 34038 ft | 519 kts | 277° |
| 2026-05-05 17:37 | 41.47940 | 37.68911 | 34039 ft | 519 kts | 277° |
| 2026-05-05 17:37 | 41.48906 | 37.59309 | 34042 ft | 518 kts | 277° |
| 2026-05-05 17:38 | 41.49864 | 37.49704 | 34042 ft | 518 kts | 277° |
| 2026-05-05 17:38 | 41.50813 | 37.40103 | 34041 ft | 518 kts | 277° |
| 2026-05-05 17:39 | 41.51743 | 37.30472 | 34041 ft | 518 kts | 276° |
| 2026-05-05 17:39 | 41.52622 | 37.20873 | 34039 ft | 518 kts | 276° |
| 2026-05-05 17:40 | 41.53524 | 37.11247 | 34038 ft | 518 kts | 276° |
| 2026-05-05 17:40 | 41.54437 | 37.01642 | 34037 ft | 519 kts | 277° |
| 2026-05-05 17:41 | 41.55353 | 36.91971 | 34039 ft | 519 kts | 277° |
| 2026-05-05 17:41 | 41.56252 | 36.82379 | 34035 ft | 519 kts | 277° |
| 2026-05-05 17:42 | 41.57145 | 36.72749 | 34035 ft | 519 kts | 277° |
| 2026-05-05 17:42 | 41.58030 | 36.63129 | 34035 ft | 520 kts | 277° |
| 2026-05-05 17:43 | 41.58912 | 36.53445 | 34035 ft | 520 kts | 277° |
| 2026-05-05 17:43 | 41.59781 | 36.43810 | 34035 ft | 520 kts | 277° |
| 2026-05-05 17:44 | 41.60649 | 36.34107 | 34034 ft | 520 kts | 277° |
| 2026-05-05 17:44 | 41.61453 | 36.24469 | 34035 ft | 520 kts | 277° |
| 2026-05-05 17:45 | 41.62265 | 36.14788 | 34038 ft | 519 kts | 277° |
| 2026-05-05 17:45 | 41.63096 | 36.05119 | 34045 ft | 517 kts | 277° |
| 2026-05-05 17:45 | 41.63506 | 36.00361 | 34195 ft | 514 kts | 277° |
| 2026-05-05 17:46 | 41.63914 | 35.95599 | 34411 ft | 511 kts | 277° |
| 2026-05-05 17:46 | 41.64323 | 35.90807 | 34622 ft | 509 kts | 277° |
| 2026-05-05 17:46 | 41.64726 | 35.86072 | 34840 ft | 507 kts | 277° |
| 2026-05-05 17:46 | 41.65123 | 35.81372 | 35051 ft | 506 kts | 277° |
| 2026-05-05 17:47 | 41.65517 | 35.76689 | 35258 ft | 504 kts | 277° |
| 2026-05-05 17:47 | 41.65911 | 35.71974 | 35481 ft | 502 kts | 277° |
| 2026-05-05 17:47 | 41.66298 | 35.67322 | 35690 ft | 500 kts | 277° |
| 2026-05-05 17:47 | 41.66682 | 35.62686 | 35893 ft | 497 kts | 277° |
| 2026-05-05 17:48 | 41.67061 | 35.58089 | 36015 ft | 498 kts | 277° |
| 2026-05-05 17:48 | 41.67826 | 35.48734 | 36047 ft | 502 kts | 277° |
| 2026-05-05 17:49 | 41.68582 | 35.39394 | 36054 ft | 507 kts | 277° |
| 2026-05-05 17:49 | 41.69327 | 35.29879 | 36056 ft | 510 kts | 276° |
| 2026-05-05 17:50 | 41.70030 | 35.20340 | 36054 ft | 511 kts | 277° |
| 2026-05-05 17:50 | 41.70755 | 35.10826 | 36057 ft | 512 kts | 277° |
| 2026-05-05 17:51 | 41.71495 | 35.01242 | 36045 ft | 512 kts | 277° |
| 2026-05-05 17:51 | 41.72226 | 34.91725 | 36027 ft | 513 kts | 277° |
| 2026-05-05 17:52 | 41.72953 | 34.82150 | 36028 ft | 513 kts | 277° |
| 2026-05-05 17:52 | 41.73671 | 34.72580 | 36023 ft | 513 kts | 277° |
| 2026-05-05 17:53 | 41.74384 | 34.62971 | 36021 ft | 513 kts | 277° |
| 2026-05-05 17:53 | 41.75698 | 34.53673 | 36024 ft | 508 kts | 289° |
| 2026-05-05 17:54 | 41.77980 | 34.44599 | 36022 ft | 508 kts | 291° |
| 2026-05-05 17:54 | 41.80244 | 34.35542 | 36027 ft | 508 kts | 290° |
| 2026-05-05 17:55 | 41.82366 | 34.26452 | 36023 ft | 508 kts | 289° |
| 2026-05-05 17:55 | 41.84443 | 34.17358 | 36030 ft | 507 kts | 289° |
| 2026-05-05 17:56 | 41.86539 | 34.08252 | 36039 ft | 507 kts | 289° |
| 2026-05-05 17:56 | 41.88639 | 33.99147 | 36054 ft | 507 kts | 289° |
| 2026-05-05 17:57 | 41.90734 | 33.90039 | 36054 ft | 507 kts | 290° |
| 2026-05-05 17:57 | 41.92827 | 33.80900 | 36051 ft | 507 kts | 290° |
| 2026-05-05 17:58 | 41.94897 | 33.71822 | 36069 ft | 506 kts | 290° |
| 2026-05-05 17:58 | 41.96793 | 33.62621 | 36039 ft | 506 kts | 287° |
| 2026-05-05 17:59 | 41.98528 | 33.53453 | 36060 ft | 504 kts | 288° |
| 2026-05-05 17:59 | 42.00281 | 33.44239 | 36051 ft | 504 kts | 288° |
| 2026-05-05 18:00 | 42.02049 | 33.35000 | 36074 ft | 505 kts | 288° |
| 2026-05-05 18:00 | 42.03769 | 33.25761 | 36055 ft | 505 kts | 287° |
| 2026-05-05 18:01 | 42.05476 | 33.16571 | 36079 ft | 503 kts | 288° |
| 2026-05-05 18:01 | 42.07210 | 33.07359 | 36070 ft | 501 kts | 288° |
| 2026-05-05 18:02 | 42.09053 | 32.98277 | 36058 ft | 499 kts | 289° |
| 2026-05-05 18:02 | 42.10932 | 32.89227 | 36067 ft | 499 kts | 289° |
| 2026-05-05 18:03 | 42.12800 | 32.80133 | 36064 ft | 500 kts | 289° |
| 2026-05-05 18:03 | 42.14659 | 32.70998 | 36059 ft | 501 kts | 289° |
| 2026-05-05 18:04 | 42.16508 | 32.61865 | 36076 ft | 501 kts | 289° |
| 2026-05-05 18:04 | 42.18343 | 32.52747 | 36070 ft | 500 kts | 289° |
| 2026-05-05 18:05 | 42.20175 | 32.43602 | 36060 ft | 501 kts | 289° |
| 2026-05-05 18:05 | 42.21999 | 32.34452 | 36069 ft | 500 kts | 288° |
| 2026-05-05 18:05 | 42.22874 | 32.29955 | 35893 ft | 498 kts | 288° |
| 2026-05-05 18:06 | 42.23752 | 32.25373 | 36027 ft | 498 kts | 288° |
| 2026-05-05 18:06 | 42.25525 | 32.16206 | 36076 ft | 502 kts | 288° |
| 2026-05-05 18:07 | 42.27322 | 32.06998 | 36056 ft | 504 kts | 288° |
| 2026-05-05 18:07 | 42.29131 | 31.97778 | 36061 ft | 504 kts | 288° |
| 2026-05-05 18:08 | 42.30937 | 31.88542 | 36048 ft | 504 kts | 288° |
| 2026-05-05 18:08 | 42.32731 | 31.79324 | 36059 ft | 505 kts | 288° |
| 2026-05-05 18:09 | 42.34519 | 31.70083 | 36055 ft | 504 kts | 288° |
| 2026-05-05 18:09 | 42.36295 | 31.60864 | 36058 ft | 504 kts | 288° |
| 2026-05-05 18:10 | 42.38073 | 31.51591 | 36061 ft | 503 kts | 288° |
| 2026-05-05 18:10 | 42.39835 | 31.42359 | 36061 ft | 503 kts | 288° |
| 2026-05-05 18:11 | 42.41585 | 31.33133 | 36057 ft | 504 kts | 287° |
| 2026-05-05 18:11 | 42.43289 | 31.23833 | 36055 ft | 505 kts | 287° |
| 2026-05-05 18:12 | 42.45003 | 31.14546 | 36060 ft | 505 kts | 287° |
| 2026-05-05 18:12 | 42.46733 | 31.05255 | 36062 ft | 504 kts | 287° |
| 2026-05-05 18:13 | 42.48453 | 30.96002 | 36061 ft | 503 kts | 287° |
| 2026-05-05 18:13 | 42.50169 | 30.86730 | 36060 ft | 503 kts | 287° |
| 2026-05-05 18:14 | 42.51886 | 30.77409 | 36055 ft | 502 kts | 287° |
| 2026-05-05 18:14 | 42.53573 | 30.68203 | 36063 ft | 503 kts | 287° |
| 2026-05-05 18:15 | 42.55274 | 30.58876 | 36070 ft | 503 kts | 287° |
| 2026-05-05 18:15 | 42.56958 | 30.49594 | 36070 ft | 503 kts | 287° |
| 2026-05-05 18:16 | 42.58635 | 30.40304 | 36075 ft | 502 kts | 287° |
| 2026-05-05 18:16 | 42.60305 | 30.31035 | 36067 ft | 501 kts | 289° |
| 2026-05-05 18:16 | 42.61567 | 30.26600 | 36081 ft | 494 kts | 301° |
| 2026-05-05 18:17 | 42.63428 | 30.22670 | 36079 ft | 490 kts | 310° |
| 2026-05-05 18:17 | 42.67909 | 30.15644 | 36078 ft | 489 kts | 315° |
| 2026-05-05 18:18 | 42.72568 | 30.08759 | 36083 ft | 490 kts | 315° |
| 2026-05-05 18:18 | 42.77175 | 30.01816 | 36082 ft | 490 kts | 314° |
| 2026-05-05 18:19 | 42.81755 | 29.94818 | 36076 ft | 489 kts | 314° |
| 2026-05-05 18:19 | 42.86303 | 29.87831 | 36075 ft | 489 kts | 314° |
| 2026-05-05 18:20 | 42.90865 | 29.80806 | 36069 ft | 489 kts | 314° |
| 2026-05-05 18:20 | 42.95393 | 29.73814 | 36073 ft | 489 kts | 314° |
| 2026-05-05 18:21 | 42.99945 | 29.66771 | 36073 ft | 490 kts | 314° |
| 2026-05-05 18:21 | 43.04475 | 29.59745 | 36071 ft | 490 kts | 314° |
| 2026-05-05 18:22 | 43.09025 | 29.52669 | 36069 ft | 489 kts | 314° |
| 2026-05-05 18:22 | 43.13567 | 29.45589 | 36063 ft | 489 kts | 314° |
| 2026-05-05 18:23 | 43.18070 | 29.38549 | 36067 ft | 490 kts | 314° |
| 2026-05-05 18:23 | 43.22586 | 29.31444 | 36065 ft | 490 kts | 313° |
| 2026-05-05 18:24 | 43.27098 | 29.24250 | 36065 ft | 491 kts | 313° |
| 2026-05-05 18:24 | 43.31606 | 29.17108 | 36065 ft | 490 kts | 313° |
| 2026-05-05 18:25 | 43.36113 | 29.09988 | 36060 ft | 490 kts | 313° |
| 2026-05-05 18:25 | 43.40622 | 29.02855 | 36055 ft | 490 kts | 313° |
| 2026-05-05 18:26 | 43.45121 | 28.95722 | 36053 ft | 490 kts | 313° |
| 2026-05-05 18:26 | 43.49641 | 28.88537 | 36047 ft | 491 kts | 313° |
| 2026-05-05 18:27 | 43.54129 | 28.81385 | 36059 ft | 491 kts | 313° |
| 2026-05-05 18:27 | 43.58633 | 28.74190 | 36056 ft | 490 kts | 313° |
| 2026-05-05 18:28 | 43.65362 | 28.63407 | 36059 ft | 491 kts | 313° |
| 2026-05-05 18:28 | 43.69856 | 28.56182 | 36053 ft | 491 kts | 313° |
| 2026-05-05 18:29 | 43.74130 | 28.48790 | 36058 ft | 492 kts | 304° |
| 2026-05-05 18:29 | 43.77544 | 28.40413 | 36052 ft | 495 kts | 300° |
| 2026-05-05 18:30 | 43.80768 | 28.31880 | 36049 ft | 495 kts | 299° |
| 2026-05-05 18:30 | 43.83955 | 28.23396 | 36049 ft | 495 kts | 299° |
| 2026-05-05 18:31 | 43.87203 | 28.14900 | 36049 ft | 494 kts | 300° |
| 2026-05-05 18:31 | 43.90459 | 28.06445 | 36047 ft | 495 kts | 300° |
| 2026-05-05 18:32 | 43.93746 | 27.97904 | 36045 ft | 495 kts | 300° |
| 2026-05-05 18:32 | 43.96999 | 27.89427 | 36044 ft | 496 kts | 300° |
| 2026-05-05 18:33 | 44.00248 | 27.80930 | 36044 ft | 495 kts | 300° |
| 2026-05-05 18:33 | 44.03512 | 27.72370 | 36035 ft | 494 kts | 300° |
| 2026-05-05 18:34 | 44.06741 | 27.63874 | 36032 ft | 494 kts | 300° |
| 2026-05-05 18:34 | 44.09958 | 27.55386 | 36030 ft | 494 kts | 300° |
| 2026-05-05 18:35 | 44.13174 | 27.46868 | 36026 ft | 494 kts | 300° |
| 2026-05-05 18:35 | 44.16398 | 27.38307 | 36017 ft | 494 kts | 300° |
| 2026-05-05 18:36 | 44.19591 | 27.29737 | 36020 ft | 494 kts | 298° |
| 2026-05-05 18:36 | 44.22755 | 27.21129 | 36026 ft | 494 kts | 298° |
| 2026-05-05 18:37 | 44.25923 | 27.12577 | 36021 ft | 493 kts | 299° |
| 2026-05-05 18:37 | 44.29111 | 27.04000 | 36021 ft | 492 kts | 299° |
| 2026-05-05 18:38 | 44.32277 | 26.95464 | 36020 ft | 492 kts | 299° |
| 2026-05-05 18:38 | 44.35441 | 26.86910 | 36022 ft | 493 kts | 299° |
| 2026-05-05 18:39 | 44.38612 | 26.78308 | 36019 ft | 493 kts | 299° |
| 2026-05-05 18:39 | 44.41773 | 26.69704 | 36015 ft | 492 kts | 299° |
| 2026-05-05 18:40 | 44.44920 | 26.61114 | 36015 ft | 491 kts | 299° |
| 2026-05-05 18:40 | 44.48046 | 26.52553 | 36015 ft | 490 kts | 300° |
| 2026-05-05 18:41 | 44.51160 | 26.43999 | 36011 ft | 490 kts | 300° |
| 2026-05-05 18:41 | 44.54272 | 26.35424 | 36009 ft | 490 kts | 300° |
| 2026-05-05 18:42 | 44.57336 | 26.26828 | 36011 ft | 491 kts | 298° |
| 2026-05-05 18:42 | 44.60397 | 26.18213 | 36009 ft | 490 kts | 299° |
| 2026-05-05 18:43 | 44.63469 | 26.09628 | 36005 ft | 489 kts | 299° |
| 2026-05-05 18:43 | 44.66568 | 26.00976 | 36007 ft | 488 kts | 299° |
| 2026-05-05 18:44 | 44.69633 | 25.92398 | 36005 ft | 488 kts | 299° |
| 2026-05-05 18:44 | 44.72690 | 25.83816 | 36005 ft | 489 kts | 299° |
| 2026-05-05 18:45 | 44.75758 | 25.75173 | 36006 ft | 489 kts | 299° |
| 2026-05-05 18:45 | 44.78809 | 25.66551 | 36013 ft | 488 kts | 299° |
| 2026-05-05 18:46 | 44.81844 | 25.57948 | 36018 ft | 487 kts | 299° |
| 2026-05-05 18:46 | 44.84865 | 25.49355 | 36027 ft | 486 kts | 299° |
| 2026-05-05 18:47 | 44.87870 | 25.40782 | 36029 ft | 486 kts | 299° |
| 2026-05-05 18:47 | 44.90878 | 25.32154 | 36033 ft | 487 kts | 298° |
| 2026-05-05 18:48 | 44.93844 | 25.23463 | 36036 ft | 488 kts | 298° |
| 2026-05-05 18:48 | 44.96801 | 25.14855 | 36035 ft | 486 kts | 298° |
| 2026-05-05 18:49 | 44.99780 | 25.06224 | 36045 ft | 485 kts | 298° |
| 2026-05-05 18:49 | 45.02758 | 24.97590 | 36036 ft | 485 kts | 298° |
| 2026-05-05 18:50 | 45.05718 | 24.88981 | 36029 ft | 485 kts | 298° |
| 2026-05-05 18:50 | 45.08696 | 24.80292 | 36029 ft | 485 kts | 298° |
| 2026-05-05 18:51 | 45.11651 | 24.71640 | 36029 ft | 484 kts | 298° |
| 2026-05-05 18:51 | 45.14588 | 24.63008 | 36034 ft | 484 kts | 298° |
| 2026-05-05 18:52 | 45.17528 | 24.54344 | 36035 ft | 483 kts | 298° |
| 2026-05-05 18:52 | 45.20457 | 24.45685 | 36036 ft | 482 kts | 298° |
| 2026-05-05 18:53 | 45.23368 | 24.37055 | 36028 ft | 482 kts | 298° |
| 2026-05-05 18:53 | 45.26257 | 24.28357 | 36042 ft | 483 kts | 297° |
| 2026-05-05 18:54 | 45.29105 | 24.19699 | 36045 ft | 482 kts | 297° |
| 2026-05-05 18:54 | 45.31981 | 24.11030 | 36063 ft | 482 kts | 297° |
| 2026-05-05 18:55 | 45.34881 | 24.02309 | 36075 ft | 482 kts | 297° |
| 2026-05-05 18:55 | 45.37762 | 23.93624 | 36082 ft | 482 kts | 297° |
| 2026-05-05 18:56 | 45.40632 | 23.84945 | 36085 ft | 481 kts | 297° |
| 2026-05-05 18:56 | 45.43480 | 23.76302 | 36093 ft | 481 kts | 297° |
| 2026-05-05 18:57 | 45.46340 | 23.67597 | 36091 ft | 482 kts | 297° |
| 2026-05-05 18:57 | 45.49195 | 23.58875 | 36085 ft | 485 kts | 297° |
| 2026-05-05 18:58 | 45.52066 | 23.50077 | 36080 ft | 488 kts | 297° |
| 2026-05-05 18:58 | 45.54957 | 23.41185 | 36071 ft | 489 kts | 297° |
| 2026-05-05 18:59 | 45.57811 | 23.32359 | 36067 ft | 489 kts | 296° |
| 2026-05-05 18:59 | 45.60635 | 23.23423 | 36056 ft | 489 kts | 295° |
| 2026-05-05 19:00 | 45.63466 | 23.14524 | 36035 ft | 489 kts | 296° |
| 2026-05-05 19:00 | 45.66314 | 23.05622 | 36016 ft | 489 kts | 296° |
| 2026-05-05 19:01 | 45.69167 | 22.96698 | 36015 ft | 489 kts | 296° |
| 2026-05-05 19:01 | 45.72006 | 22.87785 | 36012 ft | 489 kts | 296° |
| 2026-05-05 19:02 | 45.74847 | 22.78837 | 36015 ft | 490 kts | 296° |
| 2026-05-05 19:02 | 45.77684 | 22.69867 | 36025 ft | 489 kts | 296° |
| 2026-05-05 19:03 | 45.80501 | 22.60933 | 36023 ft | 489 kts | 295° |
| 2026-05-05 19:03 | 45.83312 | 22.51984 | 36026 ft | 489 kts | 295° |
| 2026-05-05 19:04 | 45.86123 | 22.43006 | 36021 ft | 489 kts | 295° |
| 2026-05-05 19:04 | 45.88929 | 22.34012 | 35993 ft | 490 kts | 295° |
| 2026-05-05 19:05 | 45.91674 | 22.24998 | 35975 ft | 490 kts | 294° |
| 2026-05-05 19:05 | 45.94427 | 22.15982 | 35963 ft | 490 kts | 294° |
| 2026-05-05 19:06 | 45.97206 | 22.06946 | 35956 ft | 490 kts | 294° |
| 2026-05-05 19:06 | 45.99988 | 21.97896 | 35955 ft | 490 kts | 294° |
| 2026-05-05 19:07 | 46.02756 | 21.88865 | 35951 ft | 490 kts | 294° |
| 2026-05-05 19:07 | 46.05531 | 21.79779 | 35949 ft | 490 kts | 294° |
| 2026-05-05 19:08 | 46.08278 | 21.70751 | 35946 ft | 490 kts | 294° |
| 2026-05-05 19:08 | 46.11015 | 21.61723 | 35946 ft | 490 kts | 294° |
| 2026-05-05 19:09 | 46.13756 | 21.52643 | 35940 ft | 490 kts | 294° |
| 2026-05-05 19:09 | 46.16488 | 21.43566 | 35941 ft | 490 kts | 294° |
| 2026-05-05 19:10 | 46.19208 | 21.34496 | 35933 ft | 490 kts | 294° |
| 2026-05-05 19:10 | 46.21877 | 21.25386 | 35930 ft | 490 kts | 293° |
| 2026-05-05 19:11 | 46.24559 | 21.16235 | 35928 ft | 489 kts | 293° |
| 2026-05-05 19:11 | 46.27288 | 21.07163 | 35931 ft | 489 kts | 295° |
| 2026-05-05 19:12 | 46.30228 | 20.98184 | 35922 ft | 489 kts | 296° |
| 2026-05-05 19:12 | 46.33172 | 20.89239 | 35921 ft | 489 kts | 295° |
| 2026-05-05 19:13 | 46.36084 | 20.80294 | 35918 ft | 490 kts | 295° |
| 2026-05-05 19:13 | 46.38993 | 20.71300 | 35919 ft | 490 kts | 295° |
| 2026-05-05 19:14 | 46.41909 | 20.62246 | 35918 ft | 490 kts | 295° |
| 2026-05-05 19:14 | 46.44801 | 20.53233 | 35915 ft | 490 kts | 295° |
| 2026-05-05 19:15 | 46.47688 | 20.44206 | 35914 ft | 491 kts | 295° |
| 2026-05-05 19:15 | 46.50568 | 20.35170 | 35912 ft | 491 kts | 295° |
| 2026-05-05 19:16 | 46.53406 | 20.26074 | 35909 ft | 491 kts | 294° |
| 2026-05-05 19:16 | 46.56240 | 20.16974 | 35901 ft | 490 kts | 294° |
| 2026-05-05 19:17 | 46.59099 | 20.07866 | 35904 ft | 491 kts | 294° |
| 2026-05-05 19:17 | 46.61948 | 19.98792 | 35905 ft | 491 kts | 294° |
| 2026-05-05 19:18 | 46.64793 | 19.89706 | 35905 ft | 491 kts | 294° |
| 2026-05-05 19:18 | 46.67661 | 19.80515 | 35908 ft | 491 kts | 294° |
| 2026-05-05 19:19 | 46.70483 | 19.71436 | 35909 ft | 491 kts | 294° |
| 2026-05-05 19:19 | 46.73324 | 19.62262 | 35901 ft | 491 kts | 294° |
| 2026-05-05 19:20 | 46.76134 | 19.53155 | 35904 ft | 491 kts | 294° |
| 2026-05-05 19:20 | 46.78956 | 19.43977 | 35909 ft | 492 kts | 294° |
| 2026-05-05 19:21 | 46.81768 | 19.34797 | 35904 ft | 492 kts | 293° |
| 2026-05-05 19:21 | 46.84531 | 19.25576 | 35908 ft | 491 kts | 293° |
| 2026-05-05 19:22 | 46.87279 | 19.16392 | 35911 ft | 491 kts | 293° |
| 2026-05-05 19:22 | 46.90053 | 19.07195 | 35907 ft | 491 kts | 294° |
| 2026-05-05 19:23 | 46.92841 | 18.97957 | 35909 ft | 492 kts | 294° |
| 2026-05-05 19:23 | 46.95614 | 18.88740 | 35908 ft | 492 kts | 294° |
| 2026-05-05 19:24 | 46.98388 | 18.79482 | 35904 ft | 493 kts | 293° |
| 2026-05-05 19:24 | 47.01149 | 18.70237 | 35897 ft | 492 kts | 293° |
| 2026-05-05 19:25 | 47.03915 | 18.60934 | 35896 ft | 491 kts | 293° |
| 2026-05-05 19:25 | 47.06655 | 18.51690 | 35897 ft | 491 kts | 293° |
| 2026-05-05 19:26 | 47.09380 | 18.42458 | 35890 ft | 491 kts | 293° |
| 2026-05-05 19:26 | 47.12108 | 18.33169 | 35891 ft | 492 kts | 292° |
| 2026-05-05 19:27 | 47.14777 | 18.23847 | 35887 ft | 492 kts | 292° |
| 2026-05-05 19:27 | 47.17470 | 18.14489 | 35894 ft | 492 kts | 292° |
| 2026-05-05 19:28 | 47.20155 | 18.05225 | 35894 ft | 492 kts | 292° |
| 2026-05-05 19:28 | 47.22862 | 17.95877 | 35890 ft | 492 kts | 292° |
| 2026-05-05 19:29 | 47.25556 | 17.86543 | 35884 ft | 492 kts | 292° |
| 2026-05-05 19:29 | 47.28223 | 17.77267 | 35882 ft | 492 kts | 292° |
| 2026-05-05 19:30 | 47.30915 | 17.67869 | 35871 ft | 492 kts | 292° |
| 2026-05-05 19:30 | 47.33573 | 17.58551 | 35869 ft | 492 kts | 292° |
| 2026-05-05 19:31 | 47.36234 | 17.49189 | 35874 ft | 491 kts | 292° |
| 2026-05-05 19:31 | 47.38890 | 17.39804 | 35860 ft | 491 kts | 292° |
| 2026-05-05 19:32 | 47.41523 | 17.30411 | 35857 ft | 491 kts | 291° |
| 2026-05-05 19:32 | 47.44111 | 17.20972 | 35840 ft | 492 kts | 291° |
| 2026-05-05 19:33 | 47.46708 | 17.11596 | 35832 ft | 491 kts | 291° |
| 2026-05-05 19:33 | 47.49323 | 17.02195 | 35832 ft | 491 kts | 291° |
| 2026-05-05 19:34 | 47.51946 | 16.92744 | 35825 ft | 492 kts | 291° |
| 2026-05-05 19:35 | 47.55849 | 16.78619 | 35809 ft | 491 kts | 291° |
| 2026-05-05 19:35 | 47.58427 | 16.69238 | 35803 ft | 492 kts | 291° |
| 2026-05-05 19:36 | 47.61015 | 16.59776 | 35788 ft | 492 kts | 291° |
| 2026-05-05 19:36 | 47.63586 | 16.50334 | 35796 ft | 492 kts | 291° |
| 2026-05-05 19:37 | 47.66163 | 16.40842 | 35795 ft | 492 kts | 291° |
| 2026-05-05 19:37 | 47.68727 | 16.31316 | 35788 ft | 492 kts | 290° |
| 2026-05-05 19:38 | 47.71220 | 16.21820 | 35789 ft | 492 kts | 290° |
| 2026-05-05 19:38 | 47.73747 | 16.12279 | 35788 ft | 493 kts | 290° |
| 2026-05-05 19:39 | 47.76293 | 16.02722 | 35776 ft | 493 kts | 290° |
| 2026-05-05 19:39 | 47.78816 | 15.93233 | 35771 ft | 493 kts | 290° |
| 2026-05-05 19:40 | 47.81349 | 15.83671 | 35779 ft | 492 kts | 290° |
| 2026-05-05 19:40 | 47.83862 | 15.74143 | 35783 ft | 492 kts | 290° |
| 2026-05-05 19:41 | 47.86383 | 15.64545 | 35783 ft | 493 kts | 290° |
| 2026-05-05 19:41 | 47.88874 | 15.55024 | 35792 ft | 492 kts | 290° |
| 2026-05-05 19:42 | 47.91373 | 15.45429 | 35785 ft | 493 kts | 290° |
| 2026-05-05 19:42 | 47.93865 | 15.35823 | 35790 ft | 494 kts | 290° |
| 2026-05-05 19:43 | 47.96313 | 15.26173 | 35788 ft | 493 kts | 289° |
| 2026-05-05 19:43 | 47.98733 | 15.16579 | 35786 ft | 493 kts | 289° |
| 2026-05-05 19:44 | 48.01196 | 15.06904 | 35771 ft | 493 kts | 289° |
| 2026-05-05 19:44 | 48.03646 | 14.97294 | 35743 ft | 492 kts | 289° |
| 2026-05-05 19:45 | 48.06085 | 14.87693 | 35748 ft | 493 kts | 289° |
| 2026-05-05 19:45 | 48.08532 | 14.78021 | 35767 ft | 494 kts | 289° |
| 2026-05-05 19:46 | 48.10956 | 14.68396 | 35777 ft | 494 kts | 289° |
| 2026-05-05 19:46 | 48.13374 | 14.58748 | 35784 ft | 493 kts | 289° |
| 2026-05-05 19:47 | 48.15797 | 14.49041 | 35785 ft | 494 kts | 289° |
| 2026-05-05 19:47 | 48.18216 | 14.39312 | 35786 ft | 494 kts | 289° |
| 2026-05-05 19:48 | 48.20605 | 14.29576 | 35787 ft | 494 kts | 288° |
| 2026-05-05 19:48 | 48.22939 | 14.19865 | 35779 ft | 494 kts | 288° |
| 2026-05-05 19:49 | 48.25320 | 14.10062 | 35780 ft | 495 kts | 288° |
| 2026-05-05 19:49 | 48.27700 | 14.00304 | 35783 ft | 497 kts | 288° |
| 2026-05-05 19:50 | 48.30072 | 13.90556 | 35788 ft | 496 kts | 288° |
| 2026-05-05 19:50 | 48.32447 | 13.80754 | 35786 ft | 496 kts | 288° |
| 2026-05-05 19:51 | 48.34827 | 13.70885 | 35798 ft | 497 kts | 288° |
| 2026-05-05 19:51 | 48.37174 | 13.61107 | 35798 ft | 497 kts | 288° |
| 2026-05-05 19:52 | 48.39535 | 13.51229 | 35806 ft | 498 kts | 287° |
| 2026-05-05 19:52 | 48.41882 | 13.41363 | 35808 ft | 499 kts | 287° |
| 2026-05-05 19:53 | 48.44256 | 13.31413 | 35815 ft | 501 kts | 287° |
| 2026-05-05 19:53 | 48.46800 | 13.21550 | 35808 ft | 501 kts | 289° |
| 2026-05-05 19:54 | 48.49393 | 13.11764 | 35808 ft | 502 kts | 289° |
| 2026-05-05 19:54 | 48.51987 | 13.01947 | 35804 ft | 503 kts | 288° |
| 2026-05-05 19:55 | 48.54579 | 12.92074 | 35812 ft | 504 kts | 288° |
| 2026-05-05 19:55 | 48.57149 | 12.82232 | 35815 ft | 504 kts | 288° |
| 2026-05-05 19:56 | 48.59728 | 12.72315 | 35811 ft | 504 kts | 288° |
| 2026-05-05 19:56 | 48.62291 | 12.62413 | 35824 ft | 505 kts | 288° |
| 2026-05-05 19:57 | 48.64862 | 12.52438 | 35817 ft | 506 kts | 288° |
| 2026-05-05 19:57 | 48.67410 | 12.42508 | 35822 ft | 507 kts | 288° |
| 2026-05-05 19:58 | 48.69967 | 12.32484 | 35816 ft | 507 kts | 287° |
| 2026-05-05 19:58 | 48.72463 | 12.22424 | 35820 ft | 507 kts | 287° |
| 2026-05-05 19:59 | 48.74878 | 12.12347 | 35811 ft | 504 kts | 281° |
| 2026-05-05 19:59 | 48.76242 | 12.01922 | 35816 ft | 502 kts | 275° |
| 2026-05-05 20:00 | 48.77300 | 11.91482 | 35812 ft | 501 kts | 275° |
| 2026-05-05 20:00 | 48.78385 | 11.80967 | 35819 ft | 503 kts | 275° |
| 2026-05-05 20:01 | 48.79496 | 11.70476 | 35828 ft | 502 kts | 275° |
| 2026-05-05 20:01 | 48.80613 | 11.59924 | 35830 ft | 504 kts | 275° |
| 2026-05-05 20:02 | 48.82299 | 11.49531 | 35836 ft | 512 kts | 290° |
| 2026-05-05 20:02 | 48.85871 | 11.40186 | 35651 ft | 510 kts | 302° |
| 2026-05-05 20:02 | 48.87976 | 11.35827 | 35240 ft | 503 kts | 304° |
| 2026-05-05 20:03 | 48.90118 | 11.31591 | 34825 ft | 495 kts | 303° |
| 2026-05-05 20:03 | 48.92186 | 11.27499 | 34395 ft | 489 kts | 304° |
| 2026-05-05 20:03 | 48.94271 | 11.23370 | 33908 ft | 483 kts | 304° |
| 2026-05-05 20:03 | 48.96301 | 11.19342 | 33424 ft | 480 kts | 304° |
| 2026-05-05 20:04 | 48.98347 | 11.15274 | 32932 ft | 479 kts | 304° |
| 2026-05-05 20:04 | 49.00363 | 11.11262 | 32452 ft | 477 kts | 304° |
| 2026-05-05 20:04 | 49.02396 | 11.07212 | 31964 ft | 474 kts | 304° |
| 2026-05-05 20:04 | 49.04378 | 11.03256 | 31475 ft | 472 kts | 304° |
| 2026-05-05 20:05 | 49.06390 | 10.99235 | 30794 ft | 474 kts | 305° |
| 2026-05-05 20:05 | 49.08407 | 10.95197 | 30106 ft | 473 kts | 305° |
| 2026-05-05 20:05 | 49.10391 | 10.91222 | 29433 ft | 472 kts | 305° |
| 2026-05-05 20:05 | 49.12379 | 10.87236 | 28765 ft | 471 kts | 304° |
| 2026-05-05 20:06 | 49.14368 | 10.83239 | 28086 ft | 469 kts | 305° |
| 2026-05-05 20:06 | 49.16340 | 10.79273 | 27485 ft | 466 kts | 305° |
| 2026-05-05 20:06 | 49.18296 | 10.75330 | 26953 ft | 461 kts | 305° |
| 2026-05-05 20:06 | 49.20290 | 10.71508 | 26424 ft | 457 kts | 309° |
| 2026-05-05 20:07 | 49.22471 | 10.67931 | 25896 ft | 454 kts | 312° |
| 2026-05-05 20:07 | 49.24676 | 10.64514 | 25360 ft | 449 kts | 313° |
| 2026-05-05 20:07 | 49.26911 | 10.61081 | 24855 ft | 444 kts | 313° |
| 2026-05-05 20:07 | 49.29064 | 10.57751 | 24408 ft | 438 kts | 313° |
| 2026-05-05 20:08 | 49.31186 | 10.54439 | 23957 ft | 433 kts | 312° |
| 2026-05-05 20:08 | 49.33297 | 10.51119 | 23512 ft | 426 kts | 312° |
| 2026-05-05 20:08 | 49.35362 | 10.47854 | 23107 ft | 419 kts | 311° |
| 2026-05-05 20:08 | 49.37214 | 10.44448 | 22720 ft | 410 kts | 304° |
| 2026-05-05 20:09 | 49.38880 | 10.40855 | 22322 ft | 403 kts | 302° |
| 2026-05-05 20:09 | 49.40439 | 10.37355 | 21930 ft | 397 kts | 302° |
| 2026-05-05 20:09 | 49.42005 | 10.33840 | 21536 ft | 392 kts | 301° |
| 2026-05-05 20:09 | 49.43536 | 10.30377 | 21148 ft | 389 kts | 301° |
| 2026-05-05 20:10 | 49.45076 | 10.26919 | 20760 ft | 387 kts | 302° |
| 2026-05-05 20:10 | 49.46596 | 10.23540 | 20384 ft | 382 kts | 302° |
| 2026-05-05 20:10 | 49.48123 | 10.20170 | 20080 ft | 380 kts | 302° |
| 2026-05-05 20:10 | 49.49643 | 10.16819 | 19769 ft | 378 kts | 302° |
| 2026-05-05 20:11 | 49.51151 | 10.13496 | 19460 ft | 376 kts | 302° |
| 2026-05-05 20:11 | 49.52651 | 10.10186 | 19149 ft | 374 kts | 303° |
| 2026-05-05 20:11 | 49.54149 | 10.06877 | 18841 ft | 372 kts | 303° |
| 2026-05-05 20:11 | 49.55739 | 10.03713 | 18530 ft | 371 kts | 308° |
| 2026-05-05 20:12 | 49.57417 | 10.00673 | 18154 ft | 371 kts | 309° |
| 2026-05-05 20:12 | 49.59100 | 9.97669 | 17770 ft | 366 kts | 309° |
| 2026-05-05 20:12 | 49.60778 | 9.94678 | 17385 ft | 362 kts | 309° |
| 2026-05-05 20:12 | 49.62435 | 9.91735 | 17003 ft | 359 kts | 309° |
| 2026-05-05 20:13 | 49.64073 | 9.88832 | 16621 ft | 357 kts | 309° |
| 2026-05-05 20:13 | 49.65721 | 9.85912 | 16236 ft | 354 kts | 309° |
| 2026-05-05 20:13 | 49.67329 | 9.83074 | 15908 ft | 351 kts | 309° |
| 2026-05-05 20:13 | 49.68940 | 9.80243 | 15591 ft | 350 kts | 309° |
| 2026-05-05 20:14 | 49.70563 | 9.77402 | 15271 ft | 349 kts | 309° |
| 2026-05-05 20:14 | 49.72173 | 9.74594 | 14955 ft | 347 kts | 309° |
| 2026-05-05 20:14 | 49.73772 | 9.71806 | 14636 ft | 344 kts | 309° |
| 2026-05-05 20:14 | 49.75386 | 9.68996 | 14315 ft | 344 kts | 309° |
| 2026-05-05 20:15 | 49.76980 | 9.66234 | 13995 ft | 341 kts | 309° |
| 2026-05-05 20:15 | 49.78565 | 9.63497 | 13676 ft | 337 kts | 309° |
| 2026-05-05 20:15 | 49.80114 | 9.60812 | 13291 ft | 337 kts | 309° |
| 2026-05-05 20:15 | 49.81703 | 9.58058 | 12893 ft | 334 kts | 309° |
| 2026-05-05 20:16 | 49.83234 | 9.55403 | 12503 ft | 330 kts | 309° |
| 2026-05-05 20:16 | 49.84765 | 9.52745 | 12066 ft | 329 kts | 309° |
| 2026-05-05 20:16 | 49.86307 | 9.50067 | 11603 ft | 327 kts | 309° |
| 2026-05-05 20:16 | 49.87824 | 9.47421 | 11147 ft | 325 kts | 309° |
| 2026-05-05 20:17 | 49.89318 | 9.44819 | 10696 ft | 323 kts | 309° |
| 2026-05-05 20:17 | 49.90830 | 9.42193 | 10236 ft | 321 kts | 309° |
| 2026-05-05 20:17 | 49.92321 | 9.39600 | 9781 ft | 319 kts | 309° |
| 2026-05-05 20:17 | 49.93805 | 9.37021 | 9322 ft | 317 kts | 309° |
| 2026-05-05 20:18 | 49.95248 | 9.34508 | 8809 ft | 303 kts | 308° |
| 2026-05-05 20:18 | 49.96622 | 9.32120 | 8325 ft | 291 kts | 308° |
| 2026-05-05 20:18 | 49.97962 | 9.29791 | 7894 ft | 281 kts | 308° |
| 2026-05-05 20:18 | 49.99272 | 9.27516 | 7454 ft | 280 kts | 308° |
| 2026-05-05 20:19 | 50.00568 | 9.25253 | 7007 ft | 282 kts | 309° |
| 2026-05-05 20:19 | 50.01879 | 9.22948 | 6557 ft | 282 kts | 308° |
| 2026-05-05 20:19 | 50.03197 | 9.20620 | 6109 ft | 283 kts | 309° |
| 2026-05-05 20:19 | 50.04489 | 9.18322 | 5662 ft | 284 kts | 308° |
| 2026-05-05 20:20 | 50.05785 | 9.15994 | 5213 ft | 284 kts | 309° |
| 2026-05-05 20:20 | 50.07087 | 9.13623 | 4811 ft | 282 kts | 309° |
| 2026-05-05 20:20 | 50.08316 | 9.11266 | 4428 ft | 278 kts | 301° |
| 2026-05-05 20:20 | 50.09210 | 9.08624 | 4120 ft | 272 kts | 294° |
| 2026-05-05 20:21 | 50.10007 | 9.05969 | 4006 ft | 261 kts | 294° |
| 2026-05-05 20:21 | 50.10747 | 9.03484 | 3979 ft | 246 kts | 294° |
| 2026-05-05 20:21 | 50.11457 | 9.01099 | 3977 ft | 232 kts | 294° |
| 2026-05-05 20:21 | 50.12124 | 8.98867 | 3990 ft | 225 kts | 294° |
| 2026-05-05 20:22 | 50.12759 | 8.96594 | 3980 ft | 226 kts | 282° |
| 2026-05-05 20:22 | 50.12664 | 8.94207 | 3982 ft | 224 kts | 248° |
| 2026-05-05 20:22 | 50.12018 | 8.92016 | 3983 ft | 211 kts | 246° |
| 2026-05-05 20:22 | 50.11457 | 8.90024 | 3980 ft | 194 kts | 248° |
| 2026-05-05 20:23 | 50.10974 | 8.88138 | 3993 ft | 178 kts | 250° |
| 2026-05-05 20:23 | 50.10542 | 8.86347 | 3935 ft | 177 kts | 250° |
| 2026-05-05 20:23 | 50.10119 | 8.84545 | 3752 ft | 172 kts | 251° |
| 2026-05-05 20:23 | 50.09707 | 8.82786 | 3561 ft | 173 kts | 251° |
| 2026-05-05 20:24 | 50.09290 | 8.81008 | 3354 ft | 172 kts | 251° |
| 2026-05-05 20:24 | 50.08880 | 8.79255 | 3118 ft | 170 kts | 251° |
| 2026-05-05 20:24 | 50.08473 | 8.77521 | 2874 ft | 169 kts | 250° |
| 2026-05-05 20:24 | 50.08064 | 8.75787 | 2670 ft | 168 kts | 250° |
| 2026-05-05 20:25 | 50.07661 | 8.74084 | 2435 ft | 169 kts | 250° |
| 2026-05-05 20:25 | 50.07252 | 8.72354 | 2225 ft | 168 kts | 250° |
| 2026-05-05 20:25 | 50.06862 | 8.70702 | 1971 ft | 159 kts | 250° |
| 2026-05-05 20:25 | 50.06491 | 8.69134 | 1777 ft | 144 kts | 250° |
| 2026-05-05 20:26 | 50.06157 | 8.67724 | 1598 ft | 138 kts | 250° |
| 2026-05-05 20:26 | 50.05826 | 8.66322 | 1439 ft | 137 kts | 250° |
| 2026-05-05 20:26 | 50.05506 | 8.64921 | 1248 ft | 135 kts | 250° |
| 2026-05-05 20:26 | 50.05179 | 8.63543 | 1078 ft | 137 kts | 250° |
| 2026-05-05 20:27 | 50.04839 | 8.62125 | 905 ft | 139 kts | 249° |
| 2026-05-05 20:27 | 50.04500 | 8.60706 | 697 ft | 140 kts | 249° |
| 2026-05-05 20:27 | 50.04157 | 8.59279 | 501 ft | 140 kts | 249° |
| 2026-05-05 20:27 | 50.03817 | 8.57862 | 364 ft | 134 kts | 249° |
| 2026-05-05 20:28 | 50.03555 | 8.56769 | 344 ft | 75 kts | 250° |
| 2026-05-05 20:28 | 50.03411 | 8.56169 | 341 ft | 51 kts | 250° |
| 2026-05-05 20:28 | 50.03335 | 8.55842 | 339 ft | 21 kts | 254° |
| 2026-05-05 20:28 | 50.03311 | 8.55600 | 336 ft | 22 kts | 268° |
| 2026-05-05 20:29 | 50.03329 | 8.55362 | 336 ft | 21 kts | 280° |
| 2026-05-05 20:29 | 50.03354 | 8.55137 | 336 ft | 19 kts | 280° |
| 2026-05-05 20:29 | 50.03361 | 8.54928 | 337 ft | 18 kts | 256° |
| 2026-05-05 20:29 | 50.03323 | 8.54763 | 336 ft | 14 kts | 250° |
| 2026-05-05 20:30 | 50.03296 | 8.54648 | 335 ft | 10 kts | 250° |
| 2026-05-05 20:30 | 50.03275 | 8.54541 | 333 ft | 8 kts | 275° |
| 2026-05-05 20:30 | 50.03310 | 8.54478 | 333 ft | 7 kts | 338° |
| 2026-05-05 20:30 | 50.03359 | 8.54451 | 333 ft | 6 kts | 341° |
| 2026-05-05 20:31 | 50.03397 | 8.54431 | 334 ft | 5 kts | 341° |
| 2026-05-05 20:31 | 50.03439 | 8.54407 | 335 ft | 7 kts | 340° |
| 2026-05-05 20:31 | 50.03498 | 8.54373 | 336 ft | 10 kts | 340° |
| 2026-05-05 20:31 | 50.03562 | 8.54336 | 337 ft | 8 kts | 340° |
| 2026-05-05 20:32 | 50.03576 | 8.54328 | 338 ft | 0 kts | 340° |
| 2026-05-05 20:32 | 50.03582 | 8.54325 | 338 ft | 3 kts | 340° |
| 2026-05-05 20:32 | 50.03616 | 8.54312 | 339 ft | 6 kts | 359° |
| 2026-05-05 20:33 | 50.03665 | 8.54355 | 339 ft | 10 kts | 56° |
| 2026-05-05 20:33 | 50.03694 | 8.54465 | 340 ft | 10 kts | 70° |
| 2026-05-05 20:33 | 50.03719 | 8.54570 | 340 ft | 9 kts | 70° |
| 2026-05-05 20:33 | 50.03741 | 8.54664 | 341 ft | 8 kts | 70° |
| 2026-05-05 20:34 | 50.03759 | 8.54737 | 342 ft | 5 kts | 70° |
| 2026-05-05 20:34 | 50.03771 | 8.54789 | 344 ft | 5 kts | 70° |
| 2026-05-05 20:34 | 50.03786 | 8.54850 | 345 ft | 7 kts | 70° |
| 2026-05-05 20:34 | 50.03811 | 8.54953 | 345 ft | 12 kts | 70° |
| 2026-05-05 20:35 | 50.03845 | 8.55098 | 348 ft | 14 kts | 70° |
| 2026-05-05 20:35 | 50.03881 | 8.55249 | 350 ft | 15 kts | 70° |
| 2026-05-05 20:35 | 50.03919 | 8.55405 | 351 ft | 15 kts | 70° |
| 2026-05-05 20:35 | 50.03954 | 8.55553 | 350 ft | 14 kts | 70° |
| 2026-05-05 20:36 | 50.03988 | 8.55695 | 351 ft | 13 kts | 70° |
| 2026-05-05 20:36 | 50.04019 | 8.55828 | 350 ft | 10 kts | 70° |
| 2026-05-05 20:36 | 50.04040 | 8.55914 | 352 ft | 6 kts | 67° |
| 2026-05-05 20:36 | 50.04067 | 8.55964 | 354 ft | 7 kts | 27° |
| 2026-05-05 20:37 | 50.04129 | 8.55951 | 355 ft | 10 kts | 340° |
| 2026-05-05 20:37 | 50.04197 | 8.55920 | 357 ft | 9 kts | 0° |
| 2026-05-05 20:37 | 50.04254 | 8.55950 | 359 ft | 8 kts | 19° |
| 2026-05-05 20:37 | 50.04305 | 8.55952 | 361 ft | 6 kts | 345° |
| 2026-05-05 20:38 | 50.04345 | 8.55929 | 362 ft | 5 kts | 340° |
| 2026-05-05 20:38 | 50.04386 | 8.55912 | 363 ft | 6 kts | 352° |
| 2026-05-05 20:38 | 50.04429 | 8.55914 | 364 ft | 6 kts | 11° |
| 2026-05-05 20:38 | 50.04474 | 8.55932 | 365 ft | 6 kts | 15° |
| 2026-05-05 20:39 | 50.04522 | 8.55955 | 365 ft | 7 kts | 21° |
| 2026-05-05 20:39 | 50.04562 | 8.56006 | 365 ft | 7 kts | 58° |
| 2026-05-05 20:39 | 50.04584 | 8.56069 | 365 ft | 4 kts | 46° |
| 2026-05-05 20:39 | 50.04611 | 8.56077 | 365 ft | 3 kts | 347° |
| 2026-05-05 20:40 | 50.04631 | 8.56067 | 365 ft | 2 kts | 340° |
| 2026-05-05 20:40 | 50.04646 | 8.56059 | 365 ft | 2 kts | 340° |
| 2026-05-05 20:40 | 50.04659 | 8.56052 | 365 ft | 1 kts | 340° |
| 2026-05-05 20:40 | 50.04671 | 8.56044 | 365 ft | 0 kts | 340° |
| 2026-05-05 20:41 | 50.04673 | 8.56044 | 365 ft | 0 kts | 340° |